Observation data for Amarillo 15 North Northwest on 03/23/2019      Previous  Date  Next       Current Mesonet Observations  Soil Data  Daily Summary Page  Observations in Plain Language
KAM3 230500Z 21004KT 06/06 A2996 RMK A01 T00590059  RH  100%=      5-min Rain = 0
KAM3 230501Z 21004KT 06/06 A2996 RMK A01 T00580058  RH  100%=      5-min Rain = 0
KAM3 230502Z 21004KT 06/06 A2996 RMK A01 T00570057  RH  100%=      5-min Rain = 0
KAM3 230503Z 21004KT 06/06 A2996 RMK A01 T00570056  RH  100%=      5-min Rain = 0
KAM3 230504Z 21005KT 06/06 A2996 RMK A01 T00560056  RH  100%=      5-min Rain = 0
KAM3 230505Z 21005KT 06/06 A2996 RMK A01 T00550055  RH  100%=      5-min Rain = 0
KAM3 230506Z 21005KT 06/06 A2996 RMK A01 T00550055  RH  100%=      5-min Rain = 0
KAM3 230507Z 21005KT 06/06 A2996 RMK A01 T00560056  RH  100%=      5-min Rain = 0
KAM3 230508Z 21005KT 06/06 A2995 RMK A01 T00560056  RH  100%=      5-min Rain = 0
KAM3 230509Z 21005KT 06/06 A2995 RMK A01 T00560056  RH  100%=      5-min Rain = 0
KAM3 230510Z 21005KT 06/06 A2995 RMK A01 T00560056  RH  100%=      5-min Rain = 0
KAM3 230511Z 22004KT 06/06 A2995 RMK A01 T00560056  RH  100%=      5-min Rain = 0
KAM3 230512Z 22004KT 06/06 A2995 RMK A01 T00550055  RH  100%=      5-min Rain = 0
KAM3 230513Z 23004KT 06/06 A2995 RMK A01 T00550055  RH  100%=      5-min Rain = 0
KAM3 230514Z 23005KT 06/06 A2995 RMK A01 T00550055  RH  100%=      5-min Rain = 0
KAM3 230515Z 24005KT 06/06 A2995 RMK A01 T00560056  RH  100%=      5-min Rain = 0
KAM3 230516Z 24004KT 06/06 A2995 RMK A01 T00560056  RH  100%=      5-min Rain = 0
KAM3 230517Z 23003KT 06/06 A2995 RMK A01 T00560056  RH  100%=      5-min Rain = 0
KAM3 230518Z 22002KT 06/06 A2995 RMK A01 T00570057  RH  100%=      5-min Rain = 0
KAM3 230519Z 22001KT 06/06 A2995 RMK A01 T00570057  RH  100%=      5-min Rain = 0
KAM3 230520Z 22001KT 06/06 A2995 RMK A01 T00580058  RH  100%=      5-min Rain = 0
KAM3 230521Z 22002KT 06/06 A2995 RMK A01 T00590058  RH  100%=      5-min Rain = 0
KAM3 230522Z 22002KT 06/06 A2995 RMK A01 T00590059  RH  100%=      5-min Rain = 0
KAM3 230523Z 23004KT 06/06 A2995 RMK A01 T00600060  RH  100%=      5-min Rain = 0
KAM3 230524Z 24005KT 06/06 A2995 RMK A01 T00600060  RH  100%=      5-min Rain = 0
KAM3 230525Z 24005KT 06/06 A2995 RMK A01 T00600060  RH  100%=      5-min Rain = 0
KAM3 230526Z 23006KT 06/06 A2995 RMK A01 T00590059  RH  100%=      5-min Rain = 0
KAM3 230527Z 22005KT 06/06 A2995 RMK A01 T00550055  RH  100%=      5-min Rain = 0
KAM3 230528Z 22005KT 05/05 A2995 RMK A01 T00510051  RH  100%=      5-min Rain = 0
KAM3 230529Z 22004KT 05/05 A2995 RMK A01 T00480048  RH  100%=      5-min Rain = 0
KAM3 230530Z 21004KT 05/05 A2995 RMK A01 T00470047  RH  100%=      5-min Rain = 0
KAM3 230531Z 19004KT 05/05 A2995 RMK A01 T00480048  RH  100%=      5-min Rain = 0
KAM3 230532Z 19004KT 05/05 A2995 RMK A01 T00490049  RH  100%=      5-min Rain = 0
KAM3 230533Z 21004KT 05/05 A2995 RMK A01 T00500050  RH  100%=      5-min Rain = 0
KAM3 230534Z 22005KT 05/05 A2995 RMK A01 T00500050  RH  100%=      5-min Rain = 0
KAM3 230535Z 24006KT 05/05 A2995 RMK A01 T00520052  RH  100%=      5-min Rain = 0
KAM3 230536Z 24007KT 05/05 A2995 RMK A01 T00520052  RH  100%=      5-min Rain = 0
KAM3 230537Z 23007KT 05/05 A2995 RMK A01 T00530053  RH  100%=      5-min Rain = 0
KAM3 230538Z 23006KT 05/05 A2996 RMK A01 T00520051  RH  100%=      5-min Rain = 0
KAM3 230539Z 21005KT 05/05 A2995 RMK A01 T00510050  RH  100%=      5-min Rain = 0
KAM3 230540Z 20005KT 05/05 A2995 RMK A01 T00490049  RH  100%=      5-min Rain = 0
KAM3 230541Z 19005KT 05/05 A2995 RMK A01 T00480048  RH  100%=      5-min Rain = 0
KAM3 230542Z 18005KT 05/05 A2995 RMK A01 T00480048  RH  100%=      5-min Rain = 0
KAM3 230543Z 18005KT 05/05 A2995 RMK A01 T00470047  RH  100%=      5-min Rain = 0
KAM3 230544Z 18004KT 05/05 A2995 RMK A01 T00470047  RH  100%=      5-min Rain = 0
KAM3 230545Z 18003KT 05/05 A2995 RMK A01 T00470047  RH  100%=      5-min Rain = 0
KAM3 230546Z 20003KT 05/05 A2995 RMK A01 T00480048  RH  100%=      5-min Rain = 0
KAM3 230547Z 22005KT 05/05 A2995 RMK A01 T00500050  RH  100%=      5-min Rain = 0
KAM3 230548Z 24005KT 05/05 A2995 RMK A01 T00510051  RH  100%=      5-min Rain = 0
KAM3 230549Z 24005KT 05/05 A2996 RMK A01 T00520052  RH  100%=      5-min Rain = 0
KAM3 230550Z 24005KT 05/05 A2995 RMK A01 T00520052  RH  100%=      5-min Rain = 0
KAM3 230551Z 23004KT 05/05 A2995 RMK A01 T00510051  RH  100%=      5-min Rain = 0
KAM3 230552Z 22003KT 05/05 A2995 RMK A01 T00510051  RH  100%=      5-min Rain = 0
KAM3 230553Z 21003KT 05/05 A2995 RMK A01 T00500050  RH  100%=      5-min Rain = 0
KAM3 230554Z 21002KT 05/05 A2995 RMK A01 T00500050  RH  100%=      5-min Rain = 0
KAM3 230555Z 20004KT 05/05 A2995 RMK A01 T00510051  RH  100%=      5-min Rain = 0
KAM3 230556Z 22003KT 05/05 A2995 RMK A01 T00520052  RH  100%=      5-min Rain = 0
KAM3 230557Z 25003KT 05/05 A2995 RMK A01 T00520052  RH  100%=      5-min Rain = 0
KAM3 230558Z 26003KT 05/05 A2995 RMK A01 T00520052  RH  100%=      5-min Rain = 0
KAM3 230559Z 27003KT 05/05 A2995 RMK A01 T00540054  RH  100%=      5-min Rain = 0
KAM3 230600Z 27004KT 05/05 A2995 RMK A01 T00540054  RH  100%=      5-min Rain = 0
KAM3 230601Z 26003KT 05/05 A2995 RMK A01 T00540054  RH  100%=      5-min Rain = 0
KAM3 230602Z 25002KT 05/05 A2995 RMK A01 T00540054  RH  100%=      5-min Rain = 0
KAM3 230603Z 25001KT 05/05 A2995 RMK A01 T00520052  RH  100%=      5-min Rain = 0
KAM3 230604Z 20001KT 05/05 A2995 RMK A01 T00510051  RH  100%=      5-min Rain = 0
KAM3 230605Z 19002KT 05/05 A2995 RMK A01 T00500050  RH  100%=      5-min Rain = 0
KAM3 230606Z 19002KT 05/05 A2995 RMK A01 T00500050  RH  100%=      5-min Rain = 0
KAM3 230607Z 20003KT 05/05 A2995 RMK A01 T00490049  RH  100%=      5-min Rain = 0
KAM3 230608Z 21003KT 05/05 A2995 RMK A01 T00500050  RH  100%=      5-min Rain = 0
KAM3 230609Z 22003KT 05/05 A2995 RMK A01 T00490049  RH  100%=      5-min Rain = 0
KAM3 230610Z 22004KT 05/05 A2995 RMK A01 T00490049  RH  100%=      5-min Rain = 0
KAM3 230611Z 22004KT 05/05 A2995 RMK A01 T00490049  RH  100%=      5-min Rain = 0
KAM3 230612Z 21005KT 05/05 A2995 RMK A01 T00480048  RH  100%=      5-min Rain = 0
KAM3 230613Z 20005KT 05/05 A2995 RMK A01 T00470047  RH  100%=      5-min Rain = 0
KAM3 230614Z 18005KT 05/05 A2995 RMK A01 T00460046  RH  100%=      5-min Rain = 0
KAM3 230615Z 17004KT 05/05 A2995 RMK A01 T00450045  RH  100%=      5-min Rain = 0
KAM3 230616Z 18004KT 05/05 A2995 RMK A01 T00460046  RH  100%=      5-min Rain = 0
KAM3 230617Z 20004KT 05/05 A2995 RMK A01 T00460046  RH  100%=      5-min Rain = 0
KAM3 230618Z 21005KT 05/05 A2995 RMK A01 T00470047  RH  100%=      5-min Rain = 0
KAM3 230619Z 23005KT 05/05 A2995 RMK A01 T00480048  RH  100%=      5-min Rain = 0
KAM3 230620Z 23006KT 05/05 A2995 RMK A01 T00480048  RH  100%=      5-min Rain = 0
KAM3 230621Z 23005KT 05/05 A2996 RMK A01 T00480048  RH  100%=      5-min Rain = 0
KAM3 230622Z 21005KT 05/05 A2995 RMK A01 T00470047  RH  100%=      5-min Rain = 0
KAM3 230623Z 20005KT 05/05 A2995 RMK A01 T00450045  RH  100%=      5-min Rain = 0
KAM3 230624Z 20005KT 04/04 A2995 RMK A01 T00420042  RH  100%=      5-min Rain = 0
KAM3 230625Z 22005KT 04/04 A2996 RMK A01 T00410041  RH  100%=      5-min Rain = 0
KAM3 230626Z 23006KT 04/04 A2996 RMK A01 T00410041  RH  100%=      5-min Rain = 0
KAM3 230627Z 22006KT 04/04 A2996 RMK A01 T00410041  RH  100%=      5-min Rain = 0
KAM3 230628Z 21005KT 04/04 A2995 RMK A01 T00410041  RH  100%=      5-min Rain = 0
KAM3 230629Z 21004KT 04/04 A2995 RMK A01 T00400040  RH  100%=      5-min Rain = 0
KAM3 230630Z 21004KT 04/04 A2995 RMK A01 T00410041  RH  100%=      5-min Rain = 0
KAM3 230631Z 21004KT 04/04 A2995 RMK A01 T00420041  RH  100%=      5-min Rain = 0
KAM3 230632Z 22003KT 04/04 A2995 RMK A01 T00430043  RH  100%=      5-min Rain = 0
KAM3 230633Z 23003KT 04/04 A2995 RMK A01 T00440044  RH  100%=      5-min Rain = 0
KAM3 230634Z 24004KT 04/04 A2995 RMK A01 T00440044  RH  100%=      5-min Rain = 0
KAM3 230635Z 23005KT 05/05 A2995 RMK A01 T00450045  RH  100%=      5-min Rain = 0
KAM3 230636Z 23005KT 05/05 A2995 RMK A01 T00450045  RH  100%=      5-min Rain = 0
KAM3 230637Z 21004KT 05/05 A2995 RMK A01 T00460046  RH  100%=      5-min Rain = 0
KAM3 230638Z 21004KT 05/05 A2995 RMK A01 T00450045  RH  100%=      5-min Rain = 0
KAM3 230639Z 20005KT 04/04 A2995 RMK A01 T00440044  RH  100%=      5-min Rain = 0
KAM3 230640Z 21005KT 04/04 A2995 RMK A01 T00430043  RH  100%=      5-min Rain = 0
KAM3 230641Z 22005KT 04/04 A2995 RMK A01 T00420042  RH  100%=      5-min Rain = 0
KAM3 230642Z 22004KT 04/04 A2995 RMK A01 T00420042  RH  100%=      5-min Rain = 0
KAM3 230643Z 23005KT 04/04 A2995 RMK A01 T00430043  RH  100%=      5-min Rain = 0
KAM3 230644Z 22006KT 04/04 A2995 RMK A01 T00430043  RH  100%=      5-min Rain = 0
KAM3 230645Z 22006KT 04/04 A2995 RMK A01 T00430043  RH  100%=      5-min Rain = 0
KAM3 230646Z 22005KT 04/04 A2995 RMK A01 T00420042  RH  100%=      5-min Rain = 0
KAM3 230647Z 22005KT 04/04 A2995 RMK A01 T00410041  RH  100%=      5-min Rain = 0
KAM3 230648Z 22005KT 04/04 A2994 RMK A01 T00400040  RH  100%=      5-min Rain = 0
KAM3 230649Z 23005KT 04/04 A2994 RMK A01 T00390039  RH  100%=      5-min Rain = 0
KAM3 230650Z 23005KT 04/04 A2995 RMK A01 T00390039  RH  100%=      5-min Rain = 0
KAM3 230651Z 23005KT 04/04 A2995 RMK A01 T00380038  RH  100%=      5-min Rain = 0
KAM3 230652Z 22005KT 04/04 A2994 RMK A01 T00380038  RH  100%=      5-min Rain = 0
KAM3 230653Z 21004KT 04/04 A2994 RMK A01 T00380038  RH  100%=      5-min Rain = 0
KAM3 230654Z 21004KT 04/04 A2994 RMK A01 T00380037  RH  100%=      5-min Rain = 0
KAM3 230655Z 20004KT 04/04 A2994 RMK A01 T00380038  RH  100%=      5-min Rain = 0
KAM3 230656Z 20004KT 04/04 A2994 RMK A01 T00400040  RH  100%=      5-min Rain = 0
KAM3 230657Z 20005KT 04/04 A2994 RMK A01 T00410041  RH  100%=      5-min Rain = 0
KAM3 230658Z 23007KT 04/04 A2995 RMK A01 T00410041  RH  100%=      5-min Rain = 0
KAM3 230659Z 25008KT 04/04 A2995 RMK A01 T00400040  RH  100%=      5-min Rain = 0
KAM3 230700Z 24005KT 04/04 A2995 RMK A01 T00380038  RH  100%=      5-min Rain = 0
KAM3 230701Z 21002KT 04/04 A2994 RMK A01 T00380038  RH  100%=      5-min Rain = 0
KAM3 230702Z 20002KT 04/04 A2994 RMK A01 T00370037  RH  100%=      5-min Rain = 0
KAM3 230703Z 20002KT 04/04 A2994 RMK A01 T00360036  RH  100%=      5-min Rain = 0
KAM3 230704Z 22002KT 04/04 A2994 RMK A01 T00350035  RH  100%=      5-min Rain = 0
KAM3 230705Z 24006KT 04/04 A2995 RMK A01 T00350035  RH  100%=      5-min Rain = 0
KAM3 230706Z 24008KT 04/04 A2995 RMK A01 T00360036  RH  100%=      5-min Rain = 0
KAM3 230707Z 23004KT 04/04 A2995 RMK A01 T00370037  RH  100%=      5-min Rain = 0
KAM3 230708Z 16004KT 04/04 A2994 RMK A01 T00360036  RH  100%=      5-min Rain = 0
KAM3 230709Z 15004KT 04/04 A2994 RMK A01 T00370037  RH  100%=      5-min Rain = 0
KAM3 230710Z 15004KT 04/04 A2994 RMK A01 T00350035  RH  100%=      5-min Rain = 0
KAM3 230711Z 17003KT 03/03 A2994 RMK A01 T00340034  RH  100%=      5-min Rain = 0
KAM3 230712Z 21003KT 03/03 A2994 RMK A01 T00340034  RH  100%=      5-min Rain = 0
KAM3 230713Z 24005KT 03/03 A2995 RMK A01 T00340034  RH  100%=      5-min Rain = 0
KAM3 230714Z 26007KT 04/04 A2995 RMK A01 T00350035  RH  100%=      5-min Rain = 0
KAM3 230715Z 27005KT 03/03 A2995 RMK A01 T00340034  RH  100%=      5-min Rain = 0
KAM3 230716Z 25002KT 03/03 A2995 RMK A01 T00320031  RH  100%=      5-min Rain = 0
KAM3 230717Z 23002KT 03/03 A2994 RMK A01 T00310031  RH  100%=      5-min Rain = 0
KAM3 230718Z 23001KT 03/03 A2994 RMK A01 T00310031  RH  100%=      5-min Rain = 0
KAM3 230719Z 26002KT 03/03 A2995 RMK A01 T00330033  RH  100%=      5-min Rain = 0
KAM3 230720Z 28005KT 03/03 A2995 RMK A01 T00340034  RH  100%=      5-min Rain = 0
KAM3 230721Z 29005KT 04/04 A2995 RMK A01 T00370037  RH  100%=      5-min Rain = 0
KAM3 230722Z 27003KT 04/04 A2995 RMK A01 T00350035  RH  100%=      5-min Rain = 0
KAM3 230723Z 27002KT 03/03 A2994 RMK A01 T00320032  RH  100%=      5-min Rain = 0
KAM3 230724Z 31004KT 03/03 A2995 RMK A01 T00300030  RH  100%=      5-min Rain = 0
KAM3 230725Z 29002KT 03/03 A2994 RMK A01 T00290029  RH  100%=      5-min Rain = 0
KAM3 230726Z 28003KT 03/03 A2995 RMK A01 T00300030  RH  100%=      5-min Rain = 0
KAM3 230727Z 29006KT 03/03 A2995 RMK A01 T00310031  RH  100%=      5-min Rain = 0
KAM3 230728Z 29005KT 03/03 A2995 RMK A01 T00320032  RH  100%=      5-min Rain = 0
KAM3 230729Z 26003KT 03/03 A2995 RMK A01 T00340034  RH  100%=      5-min Rain = 0
KAM3 230730Z 25002KT 03/03 A2994 RMK A01 T00340034  RH  100%=      5-min Rain = 0
KAM3 230731Z 28003KT 03/03 A2995 RMK A01 T00330033  RH  100%=      5-min Rain = 0
KAM3 230732Z 29005KT 03/03 A2995 RMK A01 T00340034  RH  100%=      5-min Rain = 0
KAM3 230733Z 29005KT 04/04 A2995 RMK A01 T00370037  RH  100%=      5-min Rain = 0
KAM3 230734Z 29006KT 04/04 A2994 RMK A01 T00410041  RH  100%=      5-min Rain = 0
KAM3 230735Z 29006KT 04/04 A2995 RMK A01 T00440044  RH  100%=      5-min Rain = 0
KAM3 230736Z 28005KT 04/04 A2995 RMK A01 T00440044  RH  100%=      5-min Rain = 0
KAM3 230737Z 29004KT 04/04 A2994 RMK A01 T00440044  RH  100%=      5-min Rain = 0
KAM3 230738Z 29004KT 04/04 A2994 RMK A01 T00440044  RH  100%=      5-min Rain = 0
KAM3 230739Z 28005KT 04/04 A2995 RMK A01 T00440044  RH  100%=      5-min Rain = 0
KAM3 230740Z 27005KT 05/05 A2995 RMK A01 T00450045  RH  100%=      5-min Rain = 0
KAM3 230741Z 26004KT 04/04 A2995 RMK A01 T00440044  RH  100%=      5-min Rain = 0
KAM3 230742Z 25003KT 04/04 A2995 RMK A01 T00420042  RH  100%=      5-min Rain = 0
KAM3 230743Z 25004KT 04/04 A2994 RMK A01 T00410041  RH  100%=      5-min Rain = 0
KAM3 230744Z 24004KT 04/04 A2994 RMK A01 T00410041  RH  100%=      5-min Rain = 0
KAM3 230745Z 24004KT 04/04 A2994 RMK A01 T00410041  RH  100%=      5-min Rain = 0
KAM3 230746Z 24004KT 04/04 A2994 RMK A01 T00410041  RH  100%=      5-min Rain = 0
KAM3 230747Z 24005KT 04/04 A2994 RMK A01 T00400040  RH  100%=      5-min Rain = 0
KAM3 230748Z 24005KT 04/04 A2994 RMK A01 T00380038  RH  100%=      5-min Rain = 0
KAM3 230749Z 24004KT 04/04 A2994 RMK A01 T00370037  RH  100%=      5-min Rain = 0
KAM3 230750Z 23003KT 04/04 A2994 RMK A01 T00370037  RH  100%=      5-min Rain = 0
KAM3 230751Z 21004KT 04/04 A2994 RMK A01 T00370037  RH  100%=      5-min Rain = 0
KAM3 230752Z 21005KT 04/04 A2994 RMK A01 T00370037  RH  100%=      5-min Rain = 0
KAM3 230753Z 21005KT 04/04 A2994 RMK A01 T00370036  RH  100%=      5-min Rain = 0
KAM3 230754Z 20005KT 04/04 A2994 RMK A01 T00370036  RH  100%=      5-min Rain = 0
KAM3 230755Z 20003KT 04/04 A2994 RMK A01 T00370036  RH  100%=      5-min Rain = 0
KAM3 230756Z 20005KT 04/04 A2994 RMK A01 T00370037  RH  100%=      5-min Rain = 0
KAM3 230757Z 21004KT 04/04 A2994 RMK A01 T00370037  RH  100%=      5-min Rain = 0
KAM3 230758Z 22004KT 04/04 A2994 RMK A01 T00370037  RH  100%=      5-min Rain = 0
KAM3 230759Z 22005KT 04/04 A2994 RMK A01 T00380038  RH  100%=      5-min Rain = 0
KAM3 230800Z 21004KT 04/04 A2994 RMK A01 T00390039  RH  100%=      5-min Rain = 0
KAM3 230801Z 21004KT 04/04 A2994 RMK A01 T00400040  RH  100%=      5-min Rain = 0
KAM3 230802Z 22005KT 04/04 A2994 RMK A01 T00400040  RH  100%=      5-min Rain = 0
KAM3 230803Z 23004KT 04/04 A2994 RMK A01 T00390039  RH  100%=      5-min Rain = 0
KAM3 230804Z 23003KT 04/04 A2994 RMK A01 T00390038  RH  100%=      5-min Rain = 0
KAM3 230805Z 24004KT 04/04 A2994 RMK A01 T00390039  RH  100%=      5-min Rain = 0
KAM3 230806Z 24004KT 04/04 A2994 RMK A01 T00410040  RH  100%=      5-min Rain = 0
KAM3 230807Z 24004KT 04/04 A2994 RMK A01 T00430043  RH  100%=      5-min Rain = 0
KAM3 230808Z 24004KT 05/05 A2994 RMK A01 T00450045  RH  100%=      5-min Rain = 0
KAM3 230809Z 22005KT 05/05 A2994 RMK A01 T00470047  RH  100%=      5-min Rain = 0
KAM3 230810Z 22005KT 05/05 A2994 RMK A01 T00470047  RH  100%=      5-min Rain = 0
KAM3 230811Z 22004KT 05/05 A2994 RMK A01 T00460046  RH  100%=      5-min Rain = 0
KAM3 230812Z 22004KT 05/05 A2994 RMK A01 T00450045  RH  100%=      5-min Rain = 0
KAM3 230813Z 23004KT 04/04 A2994 RMK A01 T00440044  RH  100%=      5-min Rain = 0
KAM3 230814Z 23004KT 04/04 A2994 RMK A01 T00430043  RH  100%=      5-min Rain = 0
KAM3 230815Z 22005KT 04/04 A2994 RMK A01 T00430043  RH  100%=      5-min Rain = 0
KAM3 230816Z 21005KT 04/04 A2994 RMK A01 T00430042  RH  100%=      5-min Rain = 0
KAM3 230817Z 22003KT 04/04 A2994 RMK A01 T00420042  RH  100%=      5-min Rain = 0
KAM3 230818Z 24004KT 04/04 A2994 RMK A01 T00410041  RH  100%=      5-min Rain = 0
KAM3 230819Z 24005KT 04/04 A2994 RMK A01 T00410041  RH  100%=      5-min Rain = 0
KAM3 230820Z 22004KT 04/04 A2993 RMK A01 T00410041  RH  100%=      5-min Rain = 0
KAM3 230821Z 22003KT 04/04 A2993 RMK A01 T00410041  RH  100%=      5-min Rain = 0
KAM3 230822Z 23003KT 04/04 A2993 RMK A01 T00400040  RH  100%=      5-min Rain = 0
KAM3 230823Z 23002KT 04/04 A2993 RMK A01 T00400040  RH  100%=      5-min Rain = 0
KAM3 230824Z 23002KT 04/04 A2993 RMK A01 T00390039  RH  100%=      5-min Rain = 0
KAM3 230825Z 23003KT 04/04 A2993 RMK A01 T00380038  RH  100%=      5-min Rain = 0
KAM3 230826Z 23003KT 04/04 A2993 RMK A01 T00380037  RH  100%=      5-min Rain = 0
KAM3 230827Z 22003KT 04/04 A2993 RMK A01 T00380038  RH  100%=      5-min Rain = 0
KAM3 230828Z 23003KT 04/04 A2993 RMK A01 T00370037  RH  100%=      5-min Rain = 0
KAM3 230829Z 24003KT 04/04 A2993 RMK A01 T00380038  RH  100%=      5-min Rain = 0
KAM3 230830Z 25002KT 04/04 A2993 RMK A01 T00370037  RH  100%=      5-min Rain = 0
KAM3 230831Z 26002KT 04/04 A2993 RMK A01 T00370037  RH  100%=      5-min Rain = 0
KAM3 230832Z 26002KT 04/04 A2993 RMK A01 T00370036  RH  100%=      5-min Rain = 0
KAM3 230833Z 26002KT 04/04 A2993 RMK A01 T00360036  RH  100%=      5-min Rain = 0
KAM3 230834Z 25002KT 04/04 A2993 RMK A01 T00360035  RH  100%=      5-min Rain = 0
KAM3 230835Z 24003KT 04/04 A2993 RMK A01 T00350035  RH  100%=      5-min Rain = 0
KAM3 230836Z 24003KT 04/04 A2993 RMK A01 T00350035  RH  100%=      5-min Rain = 0
KAM3 230837Z 25003KT 04/04 A2993 RMK A01 T00350035  RH  100%=      5-min Rain = 0
KAM3 230838Z 26003KT 03/03 A2993 RMK A01 T00340034  RH  100%=      5-min Rain = 0
KAM3 230839Z 26004KT 03/03 A2993 RMK A01 T00330033  RH  100%=      5-min Rain = 0
KAM3 230840Z 26005KT 03/03 A2993 RMK A01 T00330032  RH  100%=      5-min Rain = 0
KAM3 230841Z 26004KT 03/03 A2993 RMK A01 T00330033  RH  100%=      5-min Rain = 0
KAM3 230842Z 26005KT 03/03 A2993 RMK A01 T00330033  RH  100%=      5-min Rain = 0
KAM3 230843Z 26005KT 03/03 A2993 RMK A01 T00330033  RH  100%=      5-min Rain = 0
KAM3 230844Z 25004KT 03/03 A2993 RMK A01 T00330033  RH  100%=      5-min Rain = 0
KAM3 230845Z 24003KT 03/03 A2993 RMK A01 T00320032  RH  100%=      5-min Rain = 0
KAM3 230846Z 24003KT 03/03 A2993 RMK A01 T00320032  RH  100%=      5-min Rain = 0
KAM3 230847Z 24004KT 03/03 A2993 RMK A01 T00310031  RH  100%=      5-min Rain = 0
KAM3 230848Z 26004KT 03/03 A2993 RMK A01 T00310030  RH  100%=      5-min Rain = 0
KAM3 230849Z 27005KT 03/03 A2993 RMK A01 T00300030  RH  100%=      5-min Rain = 0
KAM3 230850Z 26005KT 03/03 A2993 RMK A01 T00290029  RH  100%=      5-min Rain = 0
KAM3 230851Z 26005KT 03/03 A2993 RMK A01 T00290029  RH  100%=      5-min Rain = 0
KAM3 230852Z 27006KT 03/03 A2993 RMK A01 T00300030  RH  100%=      5-min Rain = 0
KAM3 230853Z 26005KT 03/03 A2993 RMK A01 T00320032  RH  100%=      5-min Rain = 0
KAM3 230854Z 25004KT 03/03 A2993 RMK A01 T00330033  RH  100%=      5-min Rain = 0
KAM3 230855Z 26004KT 03/03 A2993 RMK A01 T00320032  RH  100%=      5-min Rain = 0
KAM3 230856Z 25004KT 03/03 A2993 RMK A01 T00290029  RH  100%=      5-min Rain = 0
KAM3 230857Z 23005KT 03/03 A2992 RMK A01 T00290029  RH  100%=      5-min Rain = 0
KAM3 230858Z 23004KT 03/03 A2992 RMK A01 T00280028  RH  100%=      5-min Rain = 0
KAM3 230859Z 23004KT 03/03 A2992 RMK A01 T00280028  RH  100%=      5-min Rain = 0
KAM3 230900Z 24003KT 03/03 A2992 RMK A01 T00290028  RH  100%=      5-min Rain = 0
KAM3 230901Z 23003KT 03/03 A2992 RMK A01 T00290029  RH  100%=      5-min Rain = 0
KAM3 230902Z 26003KT 03/03 A2992 RMK A01 T00290029  RH  100%=      5-min Rain = 0
KAM3 230903Z 27002KT 03/03 A2992 RMK A01 T00290029  RH  100%=      5-min Rain = 0
KAM3 230904Z 27002KT 03/03 A2993 RMK A01 T00300030  RH  100%=      5-min Rain = 0
KAM3 230905Z 26003KT 03/03 A2993 RMK A01 T00320031  RH  100%=      5-min Rain = 0
KAM3 230906Z 27003KT 03/03 A2993 RMK A01 T00330033  RH  100%=      5-min Rain = 0
KAM3 230907Z 28004KT 03/03 A2993 RMK A01 T00340034  RH  100%=      5-min Rain = 0
KAM3 230908Z 28003KT 04/04 A2992 RMK A01 T00350035  RH  100%=      5-min Rain = 0
KAM3 230909Z 27003KT 04/04 A2992 RMK A01 T00350035  RH  100%=      5-min Rain = 0
KAM3 230910Z 27002KT 04/04 A2992 RMK A01 T00360036  RH  100%=      5-min Rain = 0
KAM3 230911Z 28003KT 04/04 A2992 RMK A01 T00360036  RH  100%=      5-min Rain = 0
KAM3 230912Z 28004KT 04/04 A2992 RMK A01 T00360036  RH  100%=      5-min Rain = 0
KAM3 230913Z 27003KT 04/04 A2992 RMK A01 T00360036  RH  100%=      5-min Rain = 0
KAM3 230914Z 28004KT 04/04 A2992 RMK A01 T00360036  RH  100%=      5-min Rain = 0
KAM3 230915Z 28004KT 04/04 A2992 RMK A01 T00360036  RH  100%=      5-min Rain = 0
KAM3 230916Z 27005KT 04/04 A2992 RMK A01 T00360036  RH  100%=      5-min Rain = 0
KAM3 230917Z 27005KT 04/04 A2992 RMK A01 T00350035  RH  100%=      5-min Rain = 0
KAM3 230918Z 28005KT 04/04 A2992 RMK A01 T00350035  RH  100%=      5-min Rain = 0
KAM3 230919Z 29005KT 03/03 A2992 RMK A01 T00340034  RH  100%=      5-min Rain = 0
KAM3 230920Z 29006KT 03/03 A2992 RMK A01 T00340034  RH  100%=      5-min Rain = 0
KAM3 230921Z 29006KT 03/03 A2992 RMK A01 T00340034  RH  100%=      5-min Rain = 0
KAM3 230922Z 29004KT 03/03 A2992 RMK A01 T00330033  RH  100%=      5-min Rain = 0
KAM3 230923Z 30005KT 03/03 A2992 RMK A01 T00330033  RH  100%=      5-min Rain = 0
KAM3 230924Z 29004KT 03/03 A2992 RMK A01 T00330033  RH  100%=      5-min Rain = 0
KAM3 230925Z 28004KT 03/03 A2992 RMK A01 T00330033  RH  100%=      5-min Rain = 0
KAM3 230926Z 29004KT 03/03 A2992 RMK A01 T00330033  RH  100%=      5-min Rain = 0
KAM3 230927Z 27004KT 03/03 A2992 RMK A01 T00320032  RH  100%=      5-min Rain = 0
KAM3 230928Z 26004KT 03/03 A2992 RMK A01 T00320032  RH  100%=      5-min Rain = 0
KAM3 230929Z 25003KT 03/03 A2992 RMK A01 T00320032  RH  100%=      5-min Rain = 0
KAM3 230930Z 27003KT 03/03 A2992 RMK A01 T00320031  RH  100%=      5-min Rain = 0
KAM3 230931Z 22003KT 03/03 A2992 RMK A01 T00310031  RH  100%=      5-min Rain = 0
KAM3 230932Z 21004KT 03/03 A2992 RMK A01 T00310031  RH  100%=      5-min Rain = 0
KAM3 230933Z 21005KT 03/03 A2992 RMK A01 T00310031  RH  100%=      5-min Rain = 0
KAM3 230934Z 20005KT 03/03 A2992 RMK A01 T00310031  RH  100%=      5-min Rain = 0
KAM3 230935Z 20004KT 03/03 A2992 RMK A01 T00310031  RH  100%=      5-min Rain = 0
KAM3 230936Z 20004KT 03/03 A2992 RMK A01 T00310031  RH  100%=      5-min Rain = 0
KAM3 230937Z 20003KT 03/03 A2992 RMK A01 T00310031  RH  100%=      5-min Rain = 0
KAM3 230938Z 23003KT 03/03 A2992 RMK A01 T00300030  RH  100%=      5-min Rain = 0
KAM3 230939Z 24003KT 03/03 A2992 RMK A01 T00290029  RH  100%=      5-min Rain = 0
KAM3 230940Z 24003KT 03/03 A2992 RMK A01 T00280028  RH  100%=      5-min Rain = 0
KAM3 230941Z 23003KT 03/03 A2992 RMK A01 T00280028  RH  100%=      5-min Rain = 0
KAM3 230942Z 23004KT 03/03 A2992 RMK A01 T00280027  RH  100%=      5-min Rain = 0
KAM3 230943Z 23004KT 03/03 A2992 RMK A01 T00280027  RH  100%=      5-min Rain = 0
KAM3 230944Z 23004KT 03/03 A2992 RMK A01 T00270027  RH  100%=      5-min Rain = 0
KAM3 230945Z 24003KT 03/03 A2992 RMK A01 T00270027  RH  100%=      5-min Rain = 0
KAM3 230946Z 25004KT 03/03 A2992 RMK A01 T00270027  RH  100%=      5-min Rain = 0
KAM3 230947Z 25004KT 03/03 A2992 RMK A01 T00260026  RH  100%=      5-min Rain = 0
KAM3 230948Z 25004KT 03/03 A2992 RMK A01 T00260026  RH  100%=      5-min Rain = 0
KAM3 230949Z 25004KT 03/03 A2992 RMK A01 T00260026  RH  100%=      5-min Rain = 0
KAM3 230950Z 24004KT 03/03 A2992 RMK A01 T00260026  RH  100%=      5-min Rain = 0
KAM3 230951Z 23004KT 03/03 A2992 RMK A01 T00260026  RH  100%=      5-min Rain = 0
KAM3 230952Z 23003KT 03/03 A2992 RMK A01 T00250025  RH  100%=      5-min Rain = 0
KAM3 230953Z 23003KT 03/03 A2992 RMK A01 T00260025  RH  100%=      5-min Rain = 0
KAM3 230954Z 22005KT 03/03 A2992 RMK A01 T00260026  RH  100%=      5-min Rain = 0
KAM3 230955Z 22005KT 03/03 A2992 RMK A01 T00260026  RH  100%=      5-min Rain = 0
KAM3 230956Z 24005KT 03/03 A2992 RMK A01 T00260025  RH  100%=      5-min Rain = 0
KAM3 230957Z 26005KT 03/03 A2993 RMK A01 T00260025  RH  100%=      5-min Rain = 0
KAM3 230958Z 25005KT 03/03 A2992 RMK A01 T00260026  RH  100%=      5-min Rain = 0
KAM3 230959Z 25004KT 03/03 A2992 RMK A01 T00260026  RH  100%=      5-min Rain = 0
KAM3 231000Z 27005KT 03/03 A2993 RMK A01 T00260026  RH  100%=      5-min Rain = 0
KAM3 231001Z 28008KT 03/03 A2993 RMK A01 T00250025  RH  100%=      5-min Rain = 0
KAM3 231002Z 28006KT 03/03 A2993 RMK A01 T00260026  RH  100%=      5-min Rain = 0
KAM3 231003Z 27005KT 03/03 A2993 RMK A01 T00260025  RH  100%=      5-min Rain = 0
KAM3 231004Z 27006KT 03/03 A2993 RMK A01 T00250025  RH  100%=      5-min Rain = 0
KAM3 231005Z 28006KT 03/03 A2993 RMK A01 T00250025  RH  100%=      5-min Rain = 0
KAM3 231006Z 28005KT 03/03 A2993 RMK A01 T00250025  RH  100%=      5-min Rain = 0
KAM3 231007Z 26006KT 03/03 A2993 RMK A01 T00250025  RH  100%=      5-min Rain = 0
KAM3 231008Z 27006KT 03/03 A2993 RMK A01 T00250025  RH  100%=      5-min Rain = 0
KAM3 231009Z 28006KT 03/03 A2993 RMK A01 T00250025  RH  100%=      5-min Rain = 0
KAM3 231010Z 27006KT 03/03 A2993 RMK A01 T00250025  RH  100%=      5-min Rain = 0
KAM3 231011Z 27006KT 03/03 A2993 RMK A01 T00250025  RH  100%=      5-min Rain = 0
KAM3 231012Z 27006KT 03/03 A2993 RMK A01 T00250025  RH  100%=      5-min Rain = 0
KAM3 231013Z 28006KT 03/03 A2993 RMK A01 T00250025  RH  100%=      5-min Rain = 0
KAM3 231014Z 28006KT 03/03 A2993 RMK A01 T00250025  RH  100%=      5-min Rain = 0
KAM3 231015Z 28006KT 03/03 A2993 RMK A01 T00260026  RH  100%=      5-min Rain = 0
KAM3 231016Z 28005KT 03/03 A2993 RMK A01 T00260026  RH  100%=      5-min Rain = 0
KAM3 231017Z 26003KT 03/03 A2993 RMK A01 T00260026  RH  100%=      5-min Rain = 0
KAM3 231018Z 25003KT 03/03 A2993 RMK A01 T00260026  RH  100%=      5-min Rain = 0
KAM3 231019Z 27004KT 03/03 A2993 RMK A01 T00260026  RH  100%=      5-min Rain = 0
KAM3 231020Z 26005KT 03/03 A2993 RMK A01 T00260026  RH  100%=      5-min Rain = 0
KAM3 231021Z 27006KT 03/03 A2993 RMK A01 T00260026  RH  100%=      5-min Rain = 0
KAM3 231022Z 28006KT 03/03 A2993 RMK A01 T00260026  RH  100%=      5-min Rain = 0
KAM3 231023Z 27005KT 03/03 A2993 RMK A01 T00270026  RH  100%=      5-min Rain = 0
KAM3 231024Z 28005KT 03/03 A2994 RMK A01 T00270026  RH  100%=      5-min Rain = 0
KAM3 231025Z 28006KT 03/03 A2994 RMK A01 T00270027  RH  100%=      5-min Rain = 0
KAM3 231026Z 29007KT 03/03 A2994 RMK A01 T00270026  RH  100%=      5-min Rain = 0
KAM3 231027Z 28007KT 03/03 A2994 RMK A01 T00270027  RH  100%=      5-min Rain = 0
KAM3 231028Z 28006KT 03/03 A2994 RMK A01 T00280028  RH  100%=      5-min Rain = 0
KAM3 231029Z 28006KT 03/03 A2994 RMK A01 T00280028  RH  100%=      5-min Rain = 0
KAM3 231030Z 27006KT 03/03 A2994 RMK A01 T00280028  RH  100%=      5-min Rain = 0
KAM3 231031Z 27006KT 03/03 A2994 RMK A01 T00290029  RH  100%=      5-min Rain = 0
KAM3 231032Z 27007KT 03/03 A2994 RMK A01 T00290029  RH  100%=      5-min Rain = 0
KAM3 231033Z 27008KT 03/03 A2994 RMK A01 T00290029  RH  100%=      5-min Rain = 0
KAM3 231034Z 26008KT 03/03 A2994 RMK A01 T00300030  RH  100%=      5-min Rain = 0
KAM3 231035Z 27005KT 03/03 A2994 RMK A01 T00300030  RH  100%=      5-min Rain = 0
KAM3 231036Z 25005KT 03/03 A2994 RMK A01 T00300030  RH  100%=      5-min Rain = 0
KAM3 231037Z 27006KT 03/03 A2994 RMK A01 T00300030  RH  100%=      5-min Rain = 0
KAM3 231038Z 28007KT 03/03 A2994 RMK A01 T00300030  RH  100%=      5-min Rain = 0
KAM3 231039Z 29007KT 03/03 A2994 RMK A01 T00310030  RH  100%=      5-min Rain = 0
KAM3 231040Z 29007KT 03/03 A2994 RMK A01 T00310031  RH  100%=      5-min Rain = 0
KAM3 231041Z 29007KT 03/03 A2994 RMK A01 T00310031  RH  100%=      5-min Rain = 0
KAM3 231042Z 29006KT 03/03 A2994 RMK A01 T00310031  RH  100%=      5-min Rain = 0
KAM3 231043Z 29004KT 03/03 A2994 RMK A01 T00310031  RH  100%=      5-min Rain = 0
KAM3 231044Z 29007KT 03/03 A2995 RMK A01 T00310031  RH  100%=      5-min Rain = 0
KAM3 231045Z 29006KT 03/03 A2994 RMK A01 T00320032  RH  100%=      5-min Rain = 0
KAM3 231046Z 29007KT 03/03 A2994 RMK A01 T00320032  RH  100%=      5-min Rain = 0
KAM3 231047Z 29006KT 03/03 A2994 RMK A01 T00320032  RH  100%=      5-min Rain = 0
KAM3 231048Z 27006KT 03/03 A2995 RMK A01 T00320032  RH  100%=      5-min Rain = 0
KAM3 231049Z 29006KT 03/03 A2995 RMK A01 T00320032  RH  100%=      5-min Rain = 0
KAM3 231050Z 28005KT 03/03 A2994 RMK A01 T00320032  RH  100%=      5-min Rain = 0
KAM3 231051Z 26004KT 03/03 A2994 RMK A01 T00320032  RH  100%=      5-min Rain = 0
KAM3 231052Z 28005KT 03/03 A2995 RMK A01 T00320032  RH  100%=      5-min Rain = 0
KAM3 231053Z 28004KT 03/03 A2994 RMK A01 T00320031  RH  100%=      5-min Rain = 0
KAM3 231054Z 24003KT 03/03 A2994 RMK A01 T00310031  RH  100%=      5-min Rain = 0
KAM3 231055Z 23003KT 03/03 A2994 RMK A01 T00310031  RH  100%=      5-min Rain = 0
KAM3 231056Z 28007KT 03/03 A2995 RMK A01 T00310031  RH  100%=      5-min Rain = 0
KAM3 231057Z 29003KT 03/03 A2995 RMK A01 T00310031  RH  100%=      5-min Rain = 0
KAM3 231058Z 28003KT 03/03 A2995 RMK A01 T00310031  RH  100%=      5-min Rain = 0
KAM3 231059Z 26004KT 03/03 A2995 RMK A01 T00310031  RH  100%=      5-min Rain = 0
KAM3 231100Z 26004KT 03/03 A2994 RMK A01 T00310031  RH  100%=      5-min Rain = 0
KAM3 231101Z 29004KT 03/03 A2995 RMK A01 T00310031  RH  100%=      5-min Rain = 0
KAM3 231102Z 27004KT 03/03 A2995 RMK A01 T00310031  RH  100%=      5-min Rain = 0
KAM3 231103Z 28005KT 03/03 A2995 RMK A01 T00310031  RH  100%=      5-min Rain = 0
KAM3 231104Z 28005KT 03/03 A2995 RMK A01 T00300030  RH  100%=      5-min Rain = 0
KAM3 231105Z 27005KT 03/03 A2995 RMK A01 T00300030  RH  100%=      5-min Rain = 0
KAM3 231106Z 27003KT 03/03 A2995 RMK A01 T00300030  RH  100%=      5-min Rain = 0
KAM3 231107Z 28004KT 03/03 A2995 RMK A01 T00290029  RH  100%=      5-min Rain = 0
KAM3 231108Z 29005KT 03/03 A2995 RMK A01 T00290029  RH  100%=      5-min Rain = 0
KAM3 231109Z 28006KT 03/03 A2995 RMK A01 T00290029  RH  100%=      5-min Rain = 0
KAM3 231110Z 25005KT 03/03 A2995 RMK A01 T00290029  RH  100%=      5-min Rain = 0
KAM3 231111Z 27005KT 03/03 A2995 RMK A01 T00290029  RH  100%=      5-min Rain = 0
KAM3 231112Z 27005KT 03/03 A2995 RMK A01 T00290029  RH  100%=      5-min Rain = 0
KAM3 231113Z 27005KT 03/03 A2995 RMK A01 T00290029  RH  100%=      5-min Rain = 0
KAM3 231114Z 28005KT 03/03 A2995 RMK A01 T00290029  RH  100%=      5-min Rain = 0
KAM3 231115Z 28005KT 03/03 A2995 RMK A01 T00290029  RH  100%=      5-min Rain = 0
KAM3 231116Z 28005KT 03/03 A2995 RMK A01 T00280028  RH  100%=      5-min Rain = 0
KAM3 231117Z 28006KT 03/03 A2995 RMK A01 T00280028  RH  100%=      5-min Rain = 0
KAM3 231118Z 28005KT 03/03 A2995 RMK A01 T00280028  RH  100%=      5-min Rain = 0
KAM3 231119Z 27006KT 03/03 A2995 RMK A01 T00280028  RH  100%=      5-min Rain = 0
KAM3 231120Z 28005KT 03/03 A2995 RMK A01 T00270027  RH  100%=      5-min Rain = 0
KAM3 231121Z 28005KT 03/03 A2995 RMK A01 T00280027  RH  100%=      5-min Rain = 0
KAM3 231122Z 27006KT 03/03 A2995 RMK A01 T00280028  RH  100%=      5-min Rain = 0
KAM3 231123Z 27005KT 03/03 A2995 RMK A01 T00270027  RH  100%=      5-min Rain = 0
KAM3 231124Z 29005KT 03/03 A2995 RMK A01 T00270027  RH  100%=      5-min Rain = 0
KAM3 231125Z 29006KT 03/03 A2995 RMK A01 T00280028  RH  100%=      5-min Rain = 0
KAM3 231126Z 28005KT 03/03 A2995 RMK A01 T00270027  RH  100%=      5-min Rain = 0
KAM3 231127Z 28006KT 03/03 A2995 RMK A01 T00270027  RH  100%=      5-min Rain = 0
KAM3 231128Z 27005KT 03/03 A2995 RMK A01 T00270027  RH  100%=      5-min Rain = 0
KAM3 231129Z 29004KT 03/03 A2995 RMK A01 T00270027  RH  100%=      5-min Rain = 0
KAM3 231130Z 28005KT 03/03 A2995 RMK A01 T00270027  RH  100%=      5-min Rain = 0
KAM3 231131Z 28003KT 03/03 A2995 RMK A01 T00270027  RH  100%=      5-min Rain = 0
KAM3 231132Z 27003KT 03/03 A2995 RMK A01 T00270027  RH  100%=      5-min Rain = 0
KAM3 231133Z 27005KT 03/03 A2995 RMK A01 T00270027  RH  100%=      5-min Rain = 0
KAM3 231134Z 27004KT 03/03 A2995 RMK A01 T00270027  RH  100%=      5-min Rain = 0
KAM3 231135Z 27006KT 03/03 A2995 RMK A01 T00270027  RH  100%=      5-min Rain = 0
KAM3 231136Z 26005KT 03/03 A2995 RMK A01 T00270027  RH  100%=      5-min Rain = 0
KAM3 231137Z 26005KT 03/03 A2995 RMK A01 T00270027  RH  100%=      5-min Rain = 0
KAM3 231138Z 25004KT 03/03 A2995 RMK A01 T00270027  RH  100%=      5-min Rain = 0
KAM3 231139Z 25005KT 03/03 A2995 RMK A01 T00270027  RH  100%=      5-min Rain = 0
KAM3 231140Z 26005KT 03/03 A2995 RMK A01 T00270027  RH  100%=      5-min Rain = 0
KAM3 231141Z 26004KT 03/03 A2995 RMK A01 T00270027  RH  100%=      5-min Rain = 0
KAM3 231142Z 24005KT 03/03 A2995 RMK A01 T00270027  RH  100%=      5-min Rain = 0
KAM3 231143Z 25004KT 03/03 A2995 RMK A01 T00270027  RH  100%=      5-min Rain = 0
KAM3 231144Z 23003KT 03/03 A2995 RMK A01 T00270027  RH  100%=      5-min Rain = 0
KAM3 231145Z 23004KT 03/03 A2995 RMK A01 T00270027  RH  100%=      5-min Rain = 0
KAM3 231146Z 21004KT 03/03 A2995 RMK A01 T00270027  RH  100%=      5-min Rain = 0
KAM3 231147Z 22004KT 03/03 A2995 RMK A01 T00270027  RH  100%=      5-min Rain = 0
KAM3 231148Z 21004KT 03/03 A2995 RMK A01 T00270027  RH  100%=      5-min Rain = 0
KAM3 231149Z 21003KT 03/03 A2995 RMK A01 T00270027  RH  100%=      5-min Rain = 0
KAM3 231150Z 21003KT 03/03 A2995 RMK A01 T00260026  RH  100%=      5-min Rain = 0
KAM3 231151Z 22004KT 03/03 A2995 RMK A01 T00260026  RH  100%=      5-min Rain = 0
KAM3 231152Z 25004KT 03/03 A2995 RMK A01 T00250025  RH  100%=      5-min Rain = 0
KAM3 231153Z 25004KT 03/03 A2995 RMK A01 T00250025  RH  100%=      5-min Rain = 0.01
KAM3 231154Z 26004KT 02/02 A2995 RMK A01 T00240024  RH  100%=      5-min Rain = 0
KAM3 231155Z 25005KT 02/02 A2995 RMK A01 T00230023  RH  100%=      5-min Rain = 0
KAM3 231156Z 25006KT 02/02 A2996 RMK A01 T00230023  RH  100%=      5-min Rain = 0
KAM3 231157Z 25005KT 02/02 A2995 RMK A01 T00230023  RH  100%=      5-min Rain = 0
KAM3 231158Z 25004KT 02/02 A2995 RMK A01 T00230023  RH  100%=      5-min Rain = 0
KAM3 231159Z 26005KT 02/02 A2995 RMK A01 T00230023  RH  100%=      5-min Rain = 0
KAM3 231200Z 28007KT 02/02 A2996 RMK A01 T00230023  RH  100%=      5-min Rain = 0
KAM3 231201Z 27006KT 02/02 A2996 RMK A01 T00230023  RH  100%=      5-min Rain = 0
KAM3 231202Z 26006KT 02/02 A2996 RMK A01 T00240024  RH  100%=      5-min Rain = 0
KAM3 231203Z 26006KT 02/02 A2996 RMK A01 T00240024  RH  100%=      5-min Rain = 0
KAM3 231204Z 27005KT 02/02 A2996 RMK A01 T00240024  RH  100%=      5-min Rain = 0
KAM3 231205Z 27005KT 02/02 A2996 RMK A01 T00240024  RH  100%=      5-min Rain = 0
KAM3 231206Z 27006KT 02/02 A2996 RMK A01 T00240024  RH  100%=      5-min Rain = 0
KAM3 231207Z 27006KT 02/02 A2996 RMK A01 T00240024  RH  100%=      5-min Rain = 0
KAM3 231208Z 26006KT 02/02 A2996 RMK A01 T00240024  RH  100%=      5-min Rain = 0
KAM3 231209Z 26004KT 03/03 A2996 RMK A01 T00250025  RH  100%=      5-min Rain = 0
KAM3 231210Z 26003KT 03/03 A2996 RMK A01 T00250025  RH  100%=      5-min Rain = 0
KAM3 231211Z 28005KT 03/03 A2996 RMK A01 T00250025  RH  100%=      5-min Rain = 0
KAM3 231212Z 26003KT 03/03 A2996 RMK A01 T00250025  RH  100%=      5-min Rain = 0
KAM3 231213Z 26004KT 03/03 A2996 RMK A01 T00260025  RH  100%=      5-min Rain = 0
KAM3 231214Z 26004KT 03/03 A2996 RMK A01 T00260026  RH  100%=      5-min Rain = 0
KAM3 231215Z 25005KT 03/03 A2996 RMK A01 T00260025  RH  100%=      5-min Rain = 0
KAM3 231216Z 25004KT 03/03 A2996 RMK A01 T00260025  RH  100%=      5-min Rain = 0
KAM3 231217Z 27005KT 03/03 A2996 RMK A01 T00260026  RH  100%=      5-min Rain = 0
KAM3 231218Z 27004KT 03/03 A2996 RMK A01 T00260026  RH  100%=      5-min Rain = 0
KAM3 231219Z 26005KT 03/03 A2996 RMK A01 T00260026  RH  100%=      5-min Rain = 0
KAM3 231220Z 27005KT 03/03 A2996 RMK A01 T00260026  RH  100%=      5-min Rain = 0
KAM3 231221Z 28005KT 03/03 A2996 RMK A01 T00260026  RH  100%=      5-min Rain = 0
KAM3 231222Z 27004KT 03/03 A2996 RMK A01 T00260026  RH  100%=      5-min Rain = 0
KAM3 231223Z 26003KT 03/03 A2996 RMK A01 T00260026  RH  100%=      5-min Rain = 0
KAM3 231224Z 26003KT 03/03 A2996 RMK A01 T00270027  RH  100%=      5-min Rain = 0
KAM3 231225Z 26003KT 03/03 A2996 RMK A01 T00270027  RH  100%=      5-min Rain = 0
KAM3 231226Z 28003KT 03/03 A2996 RMK A01 T00260026  RH  100%=      5-min Rain = 0
KAM3 231227Z 28004KT 03/03 A2996 RMK A01 T00270026  RH  100%=      5-min Rain = 0
KAM3 231228Z 29004KT 03/03 A2996 RMK A01 T00270027  RH  100%=      5-min Rain = 0
KAM3 231229Z 28005KT 03/03 A2996 RMK A01 T00270027  RH  100%=      5-min Rain = 0
KAM3 231230Z 27005KT 03/03 A2996 RMK A01 T00260026  RH  100%=      5-min Rain = 0
KAM3 231231Z 27004KT 03/03 A2997 RMK A01 T00260026  RH  100%=      5-min Rain = 0
KAM3 231232Z 27004KT 03/03 A2997 RMK A01 T00270027  RH  100%=      5-min Rain = 0
KAM3 231233Z 27003KT 03/03 A2997 RMK A01 T00270027  RH  100%=      5-min Rain = 0
KAM3 231234Z 27003KT 03/03 A2997 RMK A01 T00270027  RH  100%=      5-min Rain = 0
KAM3 231235Z 27005KT 03/03 A2997 RMK A01 T00280028  RH  100%=      5-min Rain = 0
KAM3 231236Z 27005KT 03/03 A2997 RMK A01 T00280027  RH  100%=      5-min Rain = 0
KAM3 231237Z 27004KT 03/03 A2997 RMK A01 T00280027  RH  100%=      5-min Rain = 0
KAM3 231238Z 26004KT 03/03 A2997 RMK A01 T00270027  RH  100%=      5-min Rain = 0
KAM3 231239Z 26005KT 03/03 A2997 RMK A01 T00280028  RH  100%=      5-min Rain = 0
KAM3 231240Z 28005KT 03/03 A2997 RMK A01 T00280028  RH  100%=      5-min Rain = 0
KAM3 231241Z 28005KT 03/03 A2997 RMK A01 T00270027  RH  100%=      5-min Rain = 0
KAM3 231242Z 28007KT 03/03 A2997 RMK A01 T00290028  RH  100%=      5-min Rain = 0
KAM3 231243Z 29007KT 03/03 A2997 RMK A01 T00290029  RH  100%=      5-min Rain = 0
KAM3 231244Z 29006KT 03/03 A2997 RMK A01 T00290029  RH  100%=      5-min Rain = 0
KAM3 231245Z 29006KT 03/03 A2997 RMK A01 T00290029  RH  100%=      5-min Rain = 0
KAM3 231246Z 28005KT 03/03 A2997 RMK A01 T00290029  RH  100%=      5-min Rain = 0
KAM3 231247Z 27006KT 03/03 A2997 RMK A01 T00300030  RH  100%=      5-min Rain = 0
KAM3 231248Z 27006KT 03/03 A2997 RMK A01 T00290029  RH  100%=      5-min Rain = 0
KAM3 231249Z 27006KT 03/03 A2997 RMK A01 T00290029  RH  100%=      5-min Rain = 0
KAM3 231250Z 27006KT 03/03 A2997 RMK A01 T00290029  RH  100%=      5-min Rain = 0
KAM3 231251Z 27005KT 03/03 A2997 RMK A01 T00290029  RH  100%=      5-min Rain = 0
KAM3 231252Z 27006KT 03/03 A2997 RMK A01 T00290029  RH  100%=      5-min Rain = 0
KAM3 231253Z 28006KT 03/03 A2997 RMK A01 T00290029  RH  100%=      5-min Rain = 0
KAM3 231254Z 29007KT 03/03 A2997 RMK A01 T00280028  RH  100%=      5-min Rain = 0
KAM3 231255Z 29006KT 03/03 A2998 RMK A01 T00280028  RH  100%=      5-min Rain = 0
KAM3 231256Z 28006KT 03/03 A2997 RMK A01 T00290029  RH  100%=      5-min Rain = 0
KAM3 231257Z 28005KT 03/03 A2997 RMK A01 T00290029  RH  100%=      5-min Rain = 0
KAM3 231258Z 28005KT 03/03 A2997 RMK A01 T00290029  RH  100%=      5-min Rain = 0
KAM3 231259Z 28006KT 03/03 A2997 RMK A01 T00290029  RH  100%=      5-min Rain = 0
KAM3 231300Z 29006KT 03/03 A2998 RMK A01 T00290029  RH  100%=      5-min Rain = 0
KAM3 231301Z 29005KT 03/03 A2998 RMK A01 T00290029  RH  100%=      5-min Rain = 0
KAM3 231302Z 28005KT 03/03 A2998 RMK A01 T00290029  RH  100%=      5-min Rain = 0
KAM3 231303Z 27004KT 03/03 A2998 RMK A01 T00290029  RH  100%=      5-min Rain = 0
KAM3 231304Z 29005KT 03/03 A2998 RMK A01 T00290029  RH  100%=      5-min Rain = 0
KAM3 231305Z 28003KT 03/03 A2998 RMK A01 T00290029  RH  100%=      5-min Rain = 0
KAM3 231306Z 27004KT 03/03 A2998 RMK A01 T00300030  RH  100%=      5-min Rain = 0
KAM3 231307Z 27003KT 03/03 A2998 RMK A01 T00300030  RH  100%=      5-min Rain = 0
KAM3 231308Z 27004KT 03/03 A2998 RMK A01 T00300030  RH  100%=      5-min Rain = 0
KAM3 231309Z 27004KT 03/03 A2998 RMK A01 T00300030  RH  100%=      5-min Rain = 0
KAM3 231310Z 27005KT 03/03 A2998 RMK A01 T00300030  RH  100%=      5-min Rain = 0
KAM3 231311Z 27004KT 03/03 A2998 RMK A01 T00300030  RH  100%=      5-min Rain = 0
KAM3 231312Z 25003KT 03/03 A2998 RMK A01 T00300030  RH  100%=      5-min Rain = 0
KAM3 231313Z 26003KT 03/03 A2998 RMK A01 T00300030  RH  100%=      5-min Rain = 0
KAM3 231314Z 26004KT 03/03 A2998 RMK A01 T00310031  RH  100%=      5-min Rain = 0
KAM3 231315Z 28004KT 03/03 A2998 RMK A01 T00310031  RH  100%=      5-min Rain = 0
KAM3 231316Z 28004KT 03/03 A2998 RMK A01 T00310031  RH  100%=      5-min Rain = 0
KAM3 231317Z 27004KT 03/03 A2998 RMK A01 T00310031  RH  100%=      5-min Rain = 0
KAM3 231318Z 28003KT 03/03 A2998 RMK A01 T00320032  RH  100%=      5-min Rain = 0
KAM3 231319Z 29004KT 03/03 A2998 RMK A01 T00320032  RH  100%=      5-min Rain = 0
KAM3 231320Z 29004KT 03/03 A2998 RMK A01 T00320032  RH  100%=      5-min Rain = 0
KAM3 231321Z 30005KT 03/03 A2998 RMK A01 T00330032  RH  100%=      5-min Rain = 0
KAM3 231322Z 30005KT 03/03 A2998 RMK A01 T00330033  RH  100%=      5-min Rain = 0
KAM3 231323Z 30005KT 03/03 A2998 RMK A01 T00330033  RH  100%=      5-min Rain = 0
KAM3 231324Z 28004KT 03/03 A2998 RMK A01 T00320032  RH  100%=      5-min Rain = 0
KAM3 231325Z 28003KT 03/03 A2998 RMK A01 T00320032  RH  100%=      5-min Rain = 0
KAM3 231326Z 26004KT 03/03 A2998 RMK A01 T00320032  RH  100%=      5-min Rain = 0
KAM3 231327Z 27003KT 03/03 A2998 RMK A01 T00320032  RH  100%=      5-min Rain = 0
KAM3 231328Z 29004KT 03/03 A2998 RMK A01 T00320032  RH  100%=      5-min Rain = 0
KAM3 231329Z 29004KT 03/03 A2999 RMK A01 T00320032  RH  100%=      5-min Rain = 0
KAM3 231330Z 29004KT 03/03 A2999 RMK A01 T00320032  RH  100%=      5-min Rain = 0
KAM3 231331Z 29005KT 03/03 A2999 RMK A01 T00320032  RH  100%=      5-min Rain = 0
KAM3 231332Z 28004KT 03/03 A2999 RMK A01 T00310031  RH  100%=      5-min Rain = 0
KAM3 231333Z 28005KT 03/03 A2999 RMK A01 T00310031  RH  100%=      5-min Rain = 0
KAM3 231334Z 29004KT 03/03 A2999 RMK A01 T00320032  RH  100%=      5-min Rain = 0
KAM3 231335Z 28004KT 03/03 A2999 RMK A01 T00320031  RH  100%=      5-min Rain = 0
KAM3 231336Z 28003KT 03/03 A2999 RMK A01 T00320032  RH  100%=      5-min Rain = 0
KAM3 231337Z 33004KT 03/03 A2999 RMK A01 T00330033  RH  100%=      5-min Rain = 0
KAM3 231338Z 32004KT 03/03 A2999 RMK A01 T00340034  RH  100%=      5-min Rain = 0
KAM3 231339Z 33004KT 03/03 A2999 RMK A01 T00340034  RH  100%=      5-min Rain = 0
KAM3 231340Z 33005KT 03/03 A2999 RMK A01 T00330033  RH  100%=      5-min Rain = 0
KAM3 231341Z 34005KT 03/03 A2999 RMK A01 T00330033  RH  100%=      5-min Rain = 0
KAM3 231342Z 34003KT 03/03 A2999 RMK A01 T00330033  RH  100%=      5-min Rain = 0
KAM3 231343Z 33003KT 03/03 A2999 RMK A01 T00320032  RH  100%=      5-min Rain = 0
KAM3 231344Z 33003KT 03/03 A2999 RMK A01 T00320032  RH  100%=      5-min Rain = 0
KAM3 231345Z 32004KT 03/03 A30 RMK A01 T00320032  RH  100%=      5-min Rain = 0
KAM3 231346Z 33003KT 03/03 A30 RMK A01 T00330032  RH  100%=      5-min Rain = 0
KAM3 231347Z 32004KT 03/03 A30 RMK A01 T00330033  RH  100%=      5-min Rain = 0
KAM3 231348Z 33005KT 03/03 A30 RMK A01 T00340034  RH  100%=      5-min Rain = 0
KAM3 231349Z 32005KT 03/03 A30 RMK A01 T00340034  RH  100%=      5-min Rain = 0
KAM3 231350Z 32005KT 03/03 A30 RMK A01 T00340034  RH  100%=      5-min Rain = 0
KAM3 231351Z 33005KT 03/03 A30 RMK A01 T00340034  RH  100%=      5-min Rain = 0
KAM3 231352Z 34006KT 04/04 A30 RMK A01 T00350035  RH  100%=      5-min Rain = 0
KAM3 231353Z 34005KT 04/04 A30 RMK A01 T00350035  RH  100%=      5-min Rain = 0
KAM3 231354Z 32003KT 03/03 A30 RMK A01 T00340034  RH  100%=      5-min Rain = 0
KAM3 231355Z 32004KT 03/03 A30 RMK A01 T00340034  RH  100%=      5-min Rain = 0
KAM3 231356Z 30004KT 04/04 A30 RMK A01 T00350035  RH  100%=      5-min Rain = 0
KAM3 231357Z 28003KT 04/04 A30 RMK A01 T00350035  RH  100%=      5-min Rain = 0
KAM3 231358Z 29002KT 04/04 A30 RMK A01 T00350035  RH  100%=      5-min Rain = 0
KAM3 231359Z 29003KT 04/04 A30 RMK A01 T00350035  RH  100%=      5-min Rain = 0
KAM3 231400Z 30003KT 04/04 A30 RMK A01 T00350035  RH  100%=      5-min Rain = 0
KAM3 231401Z 29004KT 04/04 A30 RMK A01 T00350035  RH  100%=      5-min Rain = 0
KAM3 231402Z 29003KT 04/04 A30 RMK A01 T00350035  RH  100%=      5-min Rain = 0
KAM3 231403Z 28004KT 04/04 A30 RMK A01 T00350035  RH  100%=      5-min Rain = 0
KAM3 231404Z 28005KT 04/04 A30 RMK A01 T00350035  RH  100%=      5-min Rain = 0
KAM3 231405Z 27004KT 04/04 A30 RMK A01 T00360036  RH  100%=      5-min Rain = 0
KAM3 231406Z 28005KT 04/04 A30 RMK A01 T00370037  RH  100%=      5-min Rain = 0
KAM3 231407Z 28006KT 04/04 A30 RMK A01 T00370037  RH  100%=      5-min Rain = 0
KAM3 231408Z 29005KT 04/04 A30 RMK A01 T00370037  RH  100%=      5-min Rain = 0
KAM3 231409Z 28004KT 04/04 A30 RMK A01 T00370037  RH  100%=      5-min Rain = 0
KAM3 231410Z 28003KT 04/04 A30 RMK A01 T00370037  RH  100%=      5-min Rain = 0
KAM3 231411Z 26005KT 04/04 A30 RMK A01 T00390039  RH  100%=      5-min Rain = 0
KAM3 231412Z 27005KT 04/04 A30 RMK A01 T00390039  RH  100%=      5-min Rain = 0
KAM3 231413Z 27004KT 04/04 A30 RMK A01 T00400040  RH  100%=      5-min Rain = 0
KAM3 231414Z 26005KT 04/04 A30 RMK A01 T00400040  RH  100%=      5-min Rain = 0
KAM3 231415Z 26005KT 04/04 A30 RMK A01 T00400040  RH  100%=      5-min Rain = 0
KAM3 231416Z 27005KT 04/04 A30 RMK A01 T00400040  RH  100%=      5-min Rain = 0
KAM3 231417Z 28005KT 04/04 A30 RMK A01 T00400040  RH  100%=      5-min Rain = 0
KAM3 231418Z 27005KT 04/04 A30 RMK A01 T00400040  RH  100%=      5-min Rain = 0
KAM3 231419Z 27005KT 04/04 A30 RMK A01 T00410041  RH  100%=      5-min Rain = 0
KAM3 231420Z 27006KT 04/04 A3001 RMK A01 T00410041  RH  100%=      5-min Rain = 0
KAM3 231421Z 27004KT 04/04 A3001 RMK A01 T00410041  RH  100%=      5-min Rain = 0
KAM3 231422Z 26005KT 04/04 A3001 RMK A01 T00420042  RH  100%=      5-min Rain = 0
KAM3 231423Z 28004KT 04/04 A3001 RMK A01 T00430043  RH  100%=      5-min Rain = 0
KAM3 231424Z 28004KT 04/04 A3001 RMK A01 T00440044  RH  100%=      5-min Rain = 0
KAM3 231425Z 28004KT 04/04 A3001 RMK A01 T00440044  RH  100%=      5-min Rain = 0
KAM3 231426Z 27005KT 05/05 A3001 RMK A01 T00460046  RH  100%=      5-min Rain = 0
KAM3 231427Z 27004KT 04/04 A3001 RMK A01 T00430043  RH  100%=      5-min Rain = 0
KAM3 231428Z 26004KT 04/04 A3001 RMK A01 T00440044  RH  100%=      5-min Rain = 0
KAM3 231429Z 26005KT 05/05 A3001 RMK A01 T00460046  RH  100%=      5-min Rain = 0
KAM3 231430Z 28005KT 05/05 A3001 RMK A01 T00450045  RH  100%=      5-min Rain = 0
KAM3 231431Z 25005KT 05/05 A3001 RMK A01 T00460046  RH  100%=      5-min Rain = 0
KAM3 231432Z 24005KT 05/05 A3001 RMK A01 T00470047  RH  100%=      5-min Rain = 0
KAM3 231433Z 25006KT 05/05 A3001 RMK A01 T00450045  RH  100%=      5-min Rain = 0
KAM3 231434Z 25006KT 05/05 A3001 RMK A01 T00450045  RH  100%=      5-min Rain = 0
KAM3 231435Z 25006KT 04/04 A3001 RMK A01 T00440044  RH  100%=      5-min Rain = 0
KAM3 231436Z 25006KT 05/05 A3001 RMK A01 T00450045  RH  100%=      5-min Rain = 0
KAM3 231437Z 26006KT 05/05 A3001 RMK A01 T00460046  RH  100%=      5-min Rain = 0
KAM3 231438Z 26006KT 05/05 A3001 RMK A01 T00470047  RH  100%=      5-min Rain = 0
KAM3 231439Z 25007KT 05/05 A3001 RMK A01 T00470047  RH  100%=      5-min Rain = 0
KAM3 231440Z 25007KT 05/05 A3001 RMK A01 T00480048  RH  100%=      5-min Rain = 0
KAM3 231441Z 26007KT 05/05 A3001 RMK A01 T00500050  RH  100%=      5-min Rain = 0
KAM3 231442Z 26006KT 05/05 A3001 RMK A01 T00510051  RH  100%=      5-min Rain = 0
KAM3 231443Z 26006KT 05/05 A3001 RMK A01 T00530052  RH  100%=      5-min Rain = 0
KAM3 231444Z 28005KT 05/05 A3001 RMK A01 T00540054  RH  100%=      5-min Rain = 0
KAM3 231445Z 29005KT 05/05 A3001 RMK A01 T00540054  RH  100%=      5-min Rain = 0
KAM3 231446Z 30005KT 05/05 A3001 RMK A01 T00540054  RH  100%=      5-min Rain = 0
KAM3 231447Z 30006KT 06/06 A3001 RMK A01 T00550055  RH  100%=      5-min Rain = 0
KAM3 231448Z 30005KT 05/05 A3001 RMK A01 T00540054  RH  100%=      5-min Rain = 0
KAM3 231449Z 30006KT 06/06 A3001 RMK A01 T00550055  RH  100%=      5-min Rain = 0
KAM3 231450Z 28005KT 06/06 A3001 RMK A01 T00560055  RH  100%=      5-min Rain = 0
KAM3 231451Z 28005KT 06/06 A3001 RMK A01 T00550055  RH  100%=      5-min Rain = 0
KAM3 231452Z 27004KT 05/05 A3001 RMK A01 T00540054  RH  100%=      5-min Rain = 0
KAM3 231453Z 28006KT 06/06 A3001 RMK A01 T00560056  RH  100%=      5-min Rain = 0
KAM3 231454Z 27005KT 06/06 A3001 RMK A01 T00550055  RH  100%=      5-min Rain = 0
KAM3 231455Z 27006KT 06/06 A3001 RMK A01 T00570057  RH  100%=      5-min Rain = 0
KAM3 231456Z 26006KT 06/06 A3001 RMK A01 T00580058  RH  100%=      5-min Rain = 0
KAM3 231457Z 26006KT 06/06 A3001 RMK A01 T00600060  RH  100%=      5-min Rain = 0
KAM3 231458Z 25006KT 06/06 A3001 RMK A01 T00600060  RH  100%=      5-min Rain = 0
KAM3 231459Z 27006KT 06/06 A3002 RMK A01 T00600060  RH  100%=      5-min Rain = 0
KAM3 231500Z 28007KT 06/06 A3002 RMK A01 T00620062  RH  100%=      5-min Rain = 0
KAM3 231501Z 28007KT 06/06 A3002 RMK A01 T00630063  RH  100%=      5-min Rain = 0
KAM3 231502Z 28007KT 06/06 A3002 RMK A01 T00630063  RH  100%=      5-min Rain = 0
KAM3 231503Z 29008KT 06/06 A3002 RMK A01 T00620062  RH  100%=      5-min Rain = 0
KAM3 231504Z 28009KT 06/06 A3002 RMK A01 T00620062  RH  100%=      5-min Rain = 0
KAM3 231505Z 28007KT 07/07 A3002 RMK A01 T00650065  RH  100%=      5-min Rain = 0
KAM3 231506Z 29007KT 06/06 A3002 RMK A01 T00640064  RH  100%=      5-min Rain = 0
KAM3 231507Z 30007KT 07/07 A3002 RMK A01 T00650065  RH  100%=      5-min Rain = 0
KAM3 231508Z 29006KT 07/07 A3002 RMK A01 T00650065  RH  100%=      5-min Rain = 0
KAM3 231509Z 29006KT 06/06 A3002 RMK A01 T00640064  RH  100%=      5-min Rain = 0
KAM3 231510Z 28006KT 07/07 A3002 RMK A01 T00650065  RH  100%=      5-min Rain = 0
KAM3 231511Z 29007KT 06/06 A3002 RMK A01 T00640064  RH  100%=      5-min Rain = 0
KAM3 231512Z 27007KT 07/07 A3002 RMK A01 T00650065  RH  100%=      5-min Rain = 0
KAM3 231513Z 28006KT 07/07 A3002 RMK A01 T00660066  RH  100%=      5-min Rain = 0
KAM3 231514Z 28005KT 07/07 A3002 RMK A01 T00660066  RH  100%=      5-min Rain = 0
KAM3 231515Z 29005KT 07/07 A3002 RMK A01 T00660066  RH  100%=      5-min Rain = 0
KAM3 231516Z 27006KT 07/07 A3002 RMK A01 T00670067  RH  100%=      5-min Rain = 0
KAM3 231517Z 29005KT 07/07 A3002 RMK A01 T00690069  RH  100%=      5-min Rain = 0
KAM3 231518Z 30006KT 07/07 A3002 RMK A01 T00710071  RH  100%=      5-min Rain = 0
KAM3 231519Z 30004KT 07/07 A3002 RMK A01 T00710071  RH  100%=      5-min Rain = 0
KAM3 231520Z 30006KT 07/07 A3002 RMK A01 T00720072  RH  100%=      5-min Rain = 0
KAM3 231521Z 30005KT 07/07 A3002 RMK A01 T00730073  RH  100%=      5-min Rain = 0
KAM3 231522Z 31004KT 07/07 A3002 RMK A01 T00720072  RH  100%=      5-min Rain = 0
KAM3 231523Z 30004KT 07/07 A3002 RMK A01 T00700070  RH  100%=      5-min Rain = 0
KAM3 231524Z 28004KT 07/07 A3001 RMK A01 T00720072  RH  100%=      5-min Rain = 0
KAM3 231525Z 28005KT 07/07 A3001 RMK A01 T00740074  RH  100%=      5-min Rain = 0
KAM3 231526Z 29004KT 07/07 A3001 RMK A01 T00740074  RH  100%=      5-min Rain = 0
KAM3 231527Z 30003KT 07/07 A3001 RMK A01 T00740074  RH  100%=      5-min Rain = 0
KAM3 231528Z 30005KT 08/08 A3001 RMK A01 T00750075  RH  100%=      5-min Rain = 0
KAM3 231529Z 29006KT 08/08 A3001 RMK A01 T00760076  RH  100%=      5-min Rain = 0
KAM3 231530Z 29005KT 08/08 A3001 RMK A01 T00760075  RH  100%=      5-min Rain = 0
KAM3 231531Z 27006KT 08/07 A3001 RMK A01 T00760074  RH  099%=      5-min Rain = 0
KAM3 231532Z 27006KT 08/07 A3001 RMK A01 T00760071  RH  097%=      5-min Rain = 0
KAM3 231533Z 26004KT 08/07 A3001 RMK A01 T00760069  RH  096%=      5-min Rain = 0
KAM3 231534Z 28004KT 08/07 A3001 RMK A01 T00760071  RH  097%=      5-min Rain = 0
KAM3 231535Z 30005KT 08/07 A3001 RMK A01 T00760073  RH  098%=      5-min Rain = 0
KAM3 231536Z 29004KT 08/07 A3001 RMK A01 T00770072  RH  097%=      5-min Rain = 0
KAM3 231537Z 29005KT 08/07 A3001 RMK A01 T00770068  RH  094%=      5-min Rain = 0
KAM3 231538Z 28005KT 08/07 A3001 RMK A01 T00770066  RH  093%=      5-min Rain = 0
KAM3 231539Z 28006KT 08/07 A3001 RMK A01 T00770069  RH  095%=      5-min Rain = 0
KAM3 231540Z 27005KT 08/07 A3001 RMK A01 T00780069  RH  094%=      5-min Rain = 0
KAM3 231541Z 26004KT 08/07 A3001 RMK A01 T00780068  RH  093%=      5-min Rain = 0
KAM3 231542Z 25004KT 08/06 A3001 RMK A01 T00780063  RH  090%=      5-min Rain = 0
KAM3 231543Z 28004KT 08/06 A3001 RMK A01 T00790063  RH  090%=      5-min Rain = 0
KAM3 231544Z 29005KT 08/07 A3001 RMK A01 T00810065  RH  090%=      5-min Rain = 0
KAM3 231545Z 27004KT 08/06 A3001 RMK A01 T00810060  RH  086%=      5-min Rain = 0
KAM3 231546Z 26004KT 08/06 A3001 RMK A01 T00810057  RH  085%=      5-min Rain = 0
KAM3 231547Z 25003KT 08/06 A3001 RMK A01 T00810056  RH  084%=      5-min Rain = 0
KAM3 231548Z 28004KT 08/06 A3001 RMK A01 T00810059  RH  086%=      5-min Rain = 0
KAM3 231549Z 30004KT 08/06 A3001 RMK A01 T00830060  RH  086%=      5-min Rain = 0
KAM3 231550Z 28004KT 09/06 A3001 RMK A01 T00850062  RH  086%=      5-min Rain = 0
KAM3 231551Z 27004KT 09/06 A3001 RMK A01 T00870060  RH  084%=      5-min Rain = 0
KAM3 231552Z 26003KT 09/06 A3001 RMK A01 T00870056  RH  081%=      5-min Rain = 0
KAM3 231553Z 25003KT 09/05 A3001 RMK A01 T00870052  RH  078%=      5-min Rain = 0
KAM3 231554Z 28003KT 09/05 A3001 RMK A01 T00870054  RH  080%=      5-min Rain = 0
KAM3 231555Z 28001KT 09/05 A3001 RMK A01 T00880051  RH  078%=      5-min Rain = 0
KAM3 231556Z 25001KT 09/05 A3001 RMK A01 T00880050  RH  077%=      5-min Rain = 0
KAM3 231557Z 25002KT 09/06 A3001 RMK A01 T00880055  RH  080%=      5-min Rain = 0
KAM3 231558Z 24002KT 09/05 A3001 RMK A01 T00900053  RH  077%=      5-min Rain = 0
KAM3 231559Z 26003KT 09/05 A3001 RMK A01 T00900053  RH  077%=      5-min Rain = 0
KAM3 231600Z 31003KT 09/06 A3001 RMK A01 T00920059  RH  080%=      5-min Rain = 0
KAM3 231601Z 30003KT 10/06 A3001 RMK A01 T00960062  RH  079%=      5-min Rain = 0
KAM3 231602Z 33003KT 10/05 A3001 RMK A01 T00970054  RH  075%=      5-min Rain = 0
KAM3 231603Z 33003KT 10/05 A3001 RMK A01 T00960050  RH  073%=      5-min Rain = 0
KAM3 231604Z 33003KT 09/05 A3001 RMK A01 T00940045  RH  071%=      5-min Rain = 0
KAM3 231605Z 36002KT 09/05 A3001 RMK A01 T00930048  RH  073%=      5-min Rain = 0
KAM3 231606Z 01001KT 09/05 A3001 RMK A01 T00930045  RH  072%=      5-min Rain = 0
KAM3 231607Z 03000KT 09/04 A3001 RMK A01 T00940044  RH  071%=      5-min Rain = 0
KAM3 231608Z 04002KT 09/05 A3001 RMK A01 T00940050  RH  074%=      5-min Rain = 0
KAM3 231609Z 06003KT 10/05 A3001 RMK A01 T00960048  RH  072%=      5-min Rain = 0
KAM3 231610Z 08002KT 10/05 A3001 RMK A01 T00960048  RH  072%=      5-min Rain = 0
KAM3 231611Z 11001KT 10/06 A3001 RMK A01 T00980055  RH  074%=      5-min Rain = 0
KAM3 231612Z 25000KT 10/06 A3001 RMK A01 T01020055  RH  073%=      5-min Rain = 0
KAM3 231613Z 00003KT 10/06 A3001 RMK A01 T01040056  RH  072%=      5-min Rain = 0
KAM3 231614Z 02005KT 11/05 A3001 RMK A01 T01050051  RH  069%=      5-min Rain = 0
KAM3 231615Z 02004KT 10/05 A3001 RMK A01 T01020046  RH  068%=      5-min Rain = 0
KAM3 231616Z 05001KT 10/05 A3001 RMK A01 T01000048  RH  070%=      5-min Rain = 0
KAM3 231617Z 07001G6KT 10/05 A3001 RMK A01 T01000048  RH  070%=      5-min Rain = 0
KAM3 231618Z 35004KT 10/06 A3001 RMK A01 T01030056  RH  073%=      5-min Rain = 0
KAM3 231619Z 35004KT 11/05 A3001 RMK A01 T01050054  RH  070%=      5-min Rain = 0
KAM3 231620Z 02003KT 11/06 A3001 RMK A01 T01060055  RH  071%=      5-min Rain = 0
KAM3 231621Z 35004KT 11/05 A3001 RMK A01 T01070052  RH  069%=      5-min Rain = 0
KAM3 231622Z 01006KT 11/05 A3001 RMK A01 T01060049  RH  068%=      5-min Rain = 0
KAM3 231623Z 02005KT 11/05 A3001 RMK A01 T01070054  RH  070%=      5-min Rain = 0
KAM3 231624Z 01003KT 11/05 A3001 RMK A01 T01070050  RH  067%=      5-min Rain = 0
KAM3 231625Z 03003KT 11/05 A3001 RMK A01 T01050048  RH  068%=      5-min Rain = 0
KAM3 231626Z 03004KT 11/05 A3001 RMK A01 T01050051  RH  069%=      5-min Rain = 0
KAM3 231627Z 05003KT 11/05 A3001 RMK A01 T01070051  RH  068%=      5-min Rain = 0
KAM3 231628Z 04002KT 11/05 A3001 RMK A01 T01080053  RH  069%=      5-min Rain = 0
KAM3 231629Z 07001KT 11/05 A30 RMK A01 T01110053  RH  068%=      5-min Rain = 0
KAM3 231630Z 03001KT 11/06 A30 RMK A01 T01120055  RH  068%=      5-min Rain = 0
KAM3 231631Z 35003KT 11/05 A30 RMK A01 T01140054  RH  066%=      5-min Rain = 0
KAM3 231632Z 01005KT 12/05 A30 RMK A01 T01160053  RH  065%=      5-min Rain = 0
KAM3 231633Z 02005KT 12/04 A30 RMK A01 T01170042  RH  060%=      5-min Rain = 0
KAM3 231634Z 02005KT 11/04 A30 RMK A01 T01130043  RH  062%=      5-min Rain = 0
KAM3 231635Z 02006KT 11/05 A30 RMK A01 T01120045  RH  063%=      5-min Rain = 0
KAM3 231636Z 01005KT 11/04 A30 RMK A01 T01120044  RH  063%=      5-min Rain = 0
KAM3 231637Z 01005KT 11/04 A30 RMK A01 T01110042  RH  063%=      5-min Rain = 0
KAM3 231638Z 36004KT 11/04 A30 RMK A01 T01110042  RH  063%=      5-min Rain = 0
KAM3 231639Z 01003KT 11/05 A30 RMK A01 T01090045  RH  064%=      5-min Rain = 0
KAM3 231640Z 03002KT 11/04 A3001 RMK A01 T01100044  RH  064%=      5-min Rain = 0
KAM3 231641Z 07002KT 11/05 A3001 RMK A01 T01100049  RH  066%=      5-min Rain = 0
KAM3 231642Z 08004KT 11/05 A3001 RMK A01 T01140049  RH  065%=      5-min Rain = 0
KAM3 231643Z 10003KT 12/05 A3001 RMK A01 T01170050  RH  063%=      5-min Rain = 0
KAM3 231644Z 10004KT 12/05 A3001 RMK A01 T01190049  RH  062%=      5-min Rain = 0
KAM3 231645Z 05005KT 12/05 A3001 RMK A01 T01200047  RH  061%=      5-min Rain = 0
KAM3 231646Z 04004KT 12/05 A30 RMK A01 T01190045  RH  060%=      5-min Rain = 0
KAM3 231647Z 03001KT 12/04 A30 RMK A01 T01170038  RH  059%=      5-min Rain = 0
KAM3 231648Z 00000KT 12/04 A30 RMK A01 T01150039  RH  060%=      5-min Rain = 0
KAM3 231649Z 04004KT 12/04 A30 RMK A01 T01150038  RH  059%=      5-min Rain = 0
KAM3 231650Z 01003KT 12/04 A30 RMK A01 T01150040  RH  060%=      5-min Rain = 0
KAM3 231651Z 04004KT 11/04 A30 RMK A01 T01140043  RH  062%=      5-min Rain = 0
KAM3 231652Z 07005KT 12/04 A30 RMK A01 T01150044  RH  062%=      5-min Rain = 0
KAM3 231653Z 09004KT 12/04 A30 RMK A01 T01150044  RH  061%=      5-min Rain = 0
KAM3 231654Z 08005KT 12/05 A30 RMK A01 T01170046  RH  062%=      5-min Rain = 0
KAM3 231655Z 09004KT 12/05 A30 RMK A01 T01180045  RH  061%=      5-min Rain = 0
KAM3 231656Z 10004KT 12/04 A30 RMK A01 T01170041  RH  060%=      5-min Rain = 0
KAM3 231657Z 11004KT 12/04 A30 RMK A01 T01160040  RH  060%=      5-min Rain = 0
KAM3 231658Z 11006KT 12/04 A30 RMK A01 T01160041  RH  060%=      5-min Rain = 0
KAM3 231659Z 11006KT 12/04 A30 RMK A01 T01170040  RH  059%=      5-min Rain = 0
KAM3 231700Z 10005KT 12/04 A30 RMK A01 T01180041  RH  059%=      5-min Rain = 0
KAM3 231701Z 10004KT 12/04 A30 RMK A01 T01190040  RH  059%=      5-min Rain = 0
KAM3 231702Z 10002KT 12/04 A30 RMK A01 T01180040  RH  059%=      5-min Rain = 0
KAM3 231703Z 11002KT 12/04 A30 RMK A01 T01180041  RH  059%=      5-min Rain = 0
KAM3 231704Z 05004KT 12/04 A30 RMK A01 T01200044  RH  059%=      5-min Rain = 0
KAM3 231705Z 03005KT 12/04 A30 RMK A01 T01240037  RH  055%=      5-min Rain = 0
KAM3 231706Z 03004KT 13/04 A30 RMK A01 T01250038  RH  055%=      5-min Rain = 0
KAM3 231707Z 03003KT 12/04 A30 RMK A01 T01240038  RH  056%=      5-min Rain = 0
KAM3 231708Z 08005KT 12/04 A30 RMK A01 T01240042  RH  057%=      5-min Rain = 0
KAM3 231709Z 09004KT 12/04 A30 RMK A01 T01240041  RH  057%=      5-min Rain = 0
KAM3 231710Z 09003KT 12/04 A30 RMK A01 T01230036  RH  056%=      5-min Rain = 0
KAM3 231711Z 11002KT 12/04 A30 RMK A01 T01220038  RH  056%=      5-min Rain = 0
KAM3 231712Z 14003KT 12/04 A30 RMK A01 T01230037  RH  056%=      5-min Rain = 0
KAM3 231713Z 15004KT 12/04 A30 RMK A01 T01240037  RH  055%=      5-min Rain = 0
KAM3 231714Z 19004KT 13/04 A30 RMK A01 T01250039  RH  056%=      5-min Rain = 0
KAM3 231715Z 14002KT 13/04 A2999 RMK A01 T01260038  RH  055%=      5-min Rain = 0
KAM3 231716Z 12006KT 13/04 A2999 RMK A01 T01270038  RH  055%=      5-min Rain = 0
KAM3 231717Z 14004KT 13/03 A2999 RMK A01 T01280033  RH  053%=      5-min Rain = 0
KAM3 231718Z 16003KT 13/03 A2999 RMK A01 T01270033  RH  053%=      5-min Rain = 0
KAM3 231719Z 12003KT 13/03 A2999 RMK A01 T01280034  RH  053%=      5-min Rain = 0
KAM3 231720Z 13003KT 13/03 A2999 RMK A01 T01290034  RH  052%=      5-min Rain = 0
KAM3 231721Z 13004KT 13/03 A2999 RMK A01 T01290034  RH  053%=      5-min Rain = 0
KAM3 231722Z 09005KT 13/03 A2999 RMK A01 T01290034  RH  052%=      5-min Rain = 0
KAM3 231723Z 07004KT 13/03 A2999 RMK A01 T01290031  RH  051%=      5-min Rain = 0
KAM3 231724Z 08002KT 13/03 A2999 RMK A01 T01290030  RH  051%=      5-min Rain = 0
KAM3 231725Z 13002KT 13/03 A2999 RMK A01 T01290030  RH  051%=      5-min Rain = 0
KAM3 231726Z 16001KT 13/03 A2999 RMK A01 T01290030  RH  051%=      5-min Rain = 0
KAM3 231727Z 02002KT 13/03 A2999 RMK A01 T01300032  RH  051%=      5-min Rain = 0
KAM3 231728Z 09003KT 13/03 A2999 RMK A01 T01310025  RH  049%=      5-min Rain = 0
KAM3 231729Z 12004KT 13/04 A2999 RMK A01 T01320037  RH  053%=      5-min Rain = 0
KAM3 231730Z 14006KT 13/04 A2999 RMK A01 T01340041  RH  053%=      5-min Rain = 0
KAM3 231731Z 16004KT 14/04 A2998 RMK A01 T01360039  RH  052%=      5-min Rain = 0
KAM3 231732Z 17004KT 14/04 A2998 RMK A01 T01370036  RH  051%=      5-min Rain = 0
KAM3 231733Z 14005KT 14/03 A2998 RMK A01 T01360034  RH  050%=      5-min Rain = 0
KAM3 231734Z 15005KT 13/03 A2998 RMK A01 T01340033  RH  050%=      5-min Rain = 0
KAM3 231735Z 16004KT 13/03 A2998 RMK A01 T01330034  RH  051%=      5-min Rain = 0
KAM3 231736Z 14002KT 13/04 A2998 RMK A01 T01330036  RH  052%=      5-min Rain = 0
KAM3 231737Z 12004KT 13/03 A2998 RMK A01 T01340033  RH  050%=      5-min Rain = 0
KAM3 231738Z 10004KT 13/03 A2998 RMK A01 T01340030  RH  049%=      5-min Rain = 0
KAM3 231739Z 06002KT 13/03 A2998 RMK A01 T01330030  RH  050%=      5-min Rain = 0
KAM3 231740Z 04001KT 13/03 A2998 RMK A01 T01320031  RH  050%=      5-min Rain = 0
KAM3 231741Z 00000KT 13/03 A2998 RMK A01 T01320029  RH  049%=      5-min Rain = 0
KAM3 231742Z 29001KT 13/03 A2998 RMK A01 T01320030  RH  050%=      5-min Rain = 0
KAM3 231743Z 30001KT 13/03 A2998 RMK A01 T01320030  RH  050%=      5-min Rain = 0
KAM3 231744Z 30003KT 13/03 A2998 RMK A01 T01320031  RH  051%=      5-min Rain = 0
KAM3 231745Z 29003KT 13/03 A2998 RMK A01 T01330031  RH  050%=      5-min Rain = 0
KAM3 231746Z 30002KT 14/04 A2998 RMK A01 T01350037  RH  051%=      5-min Rain = 0
KAM3 231747Z 36001KT 14/02 A2998 RMK A01 T01370024  RH  046%=      5-min Rain = 0
KAM3 231748Z 31003KT 14/02 A2998 RMK A01 T01360020  RH  045%=      5-min Rain = 0
KAM3 231749Z 31003KT 14/02 A2998 RMK A01 T01370022  RH  046%=      5-min Rain = 0
KAM3 231750Z 33003KT 14/02 A2998 RMK A01 T01370022  RH  046%=      5-min Rain = 0
KAM3 231751Z 36003KT 14/03 A2998 RMK A01 T01380026  RH  046%=      5-min Rain = 0
KAM3 231752Z 35002KT 14/03 A2998 RMK A01 T01410027  RH  046%=      5-min Rain = 0
KAM3 231753Z 34003KT 14/02 A2998 RMK A01 T01410024  RH  045%=      5-min Rain = 0
KAM3 231754Z 01003KT 14/02 A2998 RMK A01 T01410022  RH  044%=      5-min Rain = 0
KAM3 231755Z 35002KT 14/02 A2998 RMK A01 T01390024  RH  046%=      5-min Rain = 0
KAM3 231756Z 27003KT 14/03 A2998 RMK A01 T01390029  RH  048%=      5-min Rain = 0
KAM3 231757Z 21004KT 14/03 A2998 RMK A01 T01410031  RH  047%=      5-min Rain = 0
KAM3 231758Z 21004KT 14/03 A2998 RMK A01 T01430030  RH  047%=      5-min Rain = 0
KAM3 231759Z 25004KT 14/03 A2998 RMK A01 T01440030  RH  046%=      5-min Rain = 0
KAM3 231800Z 28003KT 15/03 A2998 RMK A01 T01460030  RH  046%=      5-min Rain = 0
KAM3 231801Z 29005KT 15/03 A2998 RMK A01 T01480029  RH  045%=      5-min Rain = 0
KAM3 231802Z 31004KT 15/03 A2998 RMK A01 T01470025  RH  044%=      5-min Rain = 0
KAM3 231803Z 29004KT 15/03 A2998 RMK A01 T01450025  RH  044%=      5-min Rain = 0
KAM3 231804Z 27004KT 14/03 A2998 RMK A01 T01430027  RH  046%=      5-min Rain = 0
KAM3 231805Z 26006KT 15/03 A2997 RMK A01 T01470029  RH  045%=      5-min Rain = 0
KAM3 231806Z 25006KT 15/02 A2997 RMK A01 T01500016  RH  040%=      5-min Rain = 0
KAM3 231807Z 25006KT 15/02 A2997 RMK A01 T01520016  RH  040%=      5-min Rain = 0
KAM3 231808Z 24006KT 16/01 A2997 RMK A01 T01550012  RH  038%=      5-min Rain = 0
KAM3 231809Z 26004KT 15/00 A2997 RMK A01 T01540001  RH  035%=      5-min Rain = 0
KAM3 231810Z 27005KT 15/01 A2997 RMK A01 T01500010  RH  038%=      5-min Rain = 0
KAM3 231811Z 25004KT 15/01 A2997 RMK A01 T01500009  RH  038%=      5-min Rain = 0
KAM3 231812Z 25003KT 15/01 A2997 RMK A01 T01490009  RH  039%=      5-min Rain = 0
KAM3 231813Z 26005KT 15/02 A2997 RMK A01 T01480015  RH  040%=      5-min Rain = 0
KAM3 231814Z 23005KT 15/01 A2997 RMK A01 T01480011  RH  039%=      5-min Rain = 0
KAM3 231815Z 24004KT 15/02 A2997 RMK A01 T01480015  RH  041%=      5-min Rain = 0
KAM3 231816Z 27003KT 15/01 A2997 RMK A01 T01490012  RH  039%=      5-min Rain = 0
KAM3 231817Z 26004KT 15/01 A2997 RMK A01 T01490013  RH  040%=      5-min Rain = 0
KAM3 231818Z 26004KT 15/01 A2997 RMK A01 T01490013  RH  040%=      5-min Rain = 0
KAM3 231819Z 29003KT 15/02 A2997 RMK A01 T01500019  RH  041%=      5-min Rain = 0
KAM3 231820Z 32004KT 15/01 A2997 RMK A01 T01530010  RH  038%=      5-min Rain = 0
KAM3 231821Z 31006KT 15/01 A2997 RMK A01 T01540014  RH  039%=      5-min Rain = 0
KAM3 231822Z 32007KT 16/02 A2997 RMK A01 T01550015  RH  039%=      5-min Rain = 0
KAM3 231823Z 33006KT 15/01 A2997 RMK A01 T01540012  RH  038%=      5-min Rain = 0
KAM3 231824Z 33005KT 15/01 A2997 RMK A01 T01520013  RH  039%=      5-min Rain = 0
KAM3 231825Z 33002KT 15/01 A2997 RMK A01 T01510014  RH  039%=      5-min Rain = 0
KAM3 231826Z 32002KT 15/01 A2997 RMK A01 T01510013  RH  039%=      5-min Rain = 0
KAM3 231827Z 29006KT 15/02 A2997 RMK A01 T01530021  RH  041%=      5-min Rain = 0
KAM3 231828Z 28006KT 16/02 A2997 RMK A01 T01550019  RH  040%=      5-min Rain = 0
KAM3 231829Z 30005KT 16/02 A2997 RMK A01 T01570023  RH  041%=      5-min Rain = 0
KAM3 231830Z 28007KT 16/02 A2997 RMK A01 T01580021  RH  040%=      5-min Rain = 0
KAM3 231831Z 28005KT 16/02 A2997 RMK A01 T01560017  RH  039%=      5-min Rain = 0
KAM3 231832Z 25006KT 15/02 A2997 RMK A01 T01540022  RH  041%=      5-min Rain = 0
KAM3 231833Z 26004KT 16/02 A2997 RMK A01 T01550019  RH  040%=      5-min Rain = 0
KAM3 231834Z 28003KT 16/02 A2997 RMK A01 T01550021  RH  040%=      5-min Rain = 0
KAM3 231835Z 24004KT 15/03 A2997 RMK A01 T01540026  RH  042%=      5-min Rain = 0
KAM3 231836Z 25006KT 16/03 A2997 RMK A01 T01580025  RH  041%=      5-min Rain = 0
KAM3 231837Z 25008KT 16/02 A2997 RMK A01 T01590019  RH  039%=      5-min Rain = 0
KAM3 231838Z 27006KT 16/02 A2997 RMK A01 T01590020  RH  039%=      5-min Rain = 0
KAM3 231839Z 35003KT 16/02 A2997 RMK A01 T01570018  RH  039%=      5-min Rain = 0
KAM3 231840Z 04003KT 16/02 A2997 RMK A01 T01550018  RH  040%=      5-min Rain = 0
KAM3 231841Z 24002G7KT 15/02 A2997 RMK A01 T01530020  RH  041%=      5-min Rain = 0
KAM3 231842Z 28006KT 15/03 A2996 RMK A01 T01540027  RH  042%=      5-min Rain = 0
KAM3 231843Z 27007KT 16/03 A2996 RMK A01 T01560026  RH  042%=      5-min Rain = 0
KAM3 231844Z 30002KT 16/02 A2996 RMK A01 T01560024  RH  041%=      5-min Rain = 0
KAM3 231845Z 27003KT 16/03 A2997 RMK A01 T01550026  RH  042%=      5-min Rain = 0
KAM3 231846Z 25008G13KT 16/03 A2997 RMK A01 T01570030  RH  042%=      5-min Rain = 0
KAM3 231847Z 24010KT 16/03 A2997 RMK A01 T01630031  RH  041%=      5-min Rain = 0
KAM3 231848Z 25008KT 17/02 A2997 RMK A01 T01660024  RH  038%=      5-min Rain = 0
KAM3 231849Z 26003KT 16/02 A2997 RMK A01 T01630018  RH  038%=      5-min Rain = 0
KAM3 231850Z 26005KT 16/02 A2996 RMK A01 T01590019  RH  039%=      5-min Rain = 0
KAM3 231851Z 27006KT 16/02 A2996 RMK A01 T01580022  RH  040%=      5-min Rain = 0
KAM3 231852Z 25005KT 16/02 A2996 RMK A01 T01580021  RH  040%=      5-min Rain = 0
KAM3 231853Z 25003KT 16/02 A2996 RMK A01 T01570018  RH  039%=      5-min Rain = 0
KAM3 231854Z 19002KT 16/02 A2996 RMK A01 T01570017  RH  039%=      5-min Rain = 0
KAM3 231855Z 32001KT 16/02 A2996 RMK A01 T01570015  RH  038%=      5-min Rain = 0
KAM3 231856Z 33005KT 16/02 A2996 RMK A01 T01560017  RH  039%=      5-min Rain = 0
KAM3 231857Z 35002KT 16/02 A2996 RMK A01 T01570016  RH  038%=      5-min Rain = 0
KAM3 231858Z 28004KT 16/02 A2996 RMK A01 T01570017  RH  039%=      5-min Rain = 0
KAM3 231859Z 26004KT 16/02 A2996 RMK A01 T01590019  RH  039%=      5-min Rain = 0
KAM3 231900Z 24004KT 16/02 A2996 RMK A01 T01600019  RH  039%=      5-min Rain = 0
KAM3 231901Z 22003KT 16/02 A2996 RMK A01 T01600022  RH  039%=      5-min Rain = 0
KAM3 231902Z 26002KT 16/02 A2996 RMK A01 T01600023  RH  040%=      5-min Rain = 0
KAM3 231903Z 29005KT 16/03 A2996 RMK A01 T01610025  RH  040%=      5-min Rain = 0
KAM3 231904Z 31007KT 16/03 A2996 RMK A01 T01640025  RH  039%=      5-min Rain = 0
KAM3 231905Z 29005KT 17/02 A2996 RMK A01 T01650023  RH  038%=      5-min Rain = 0
KAM3 231906Z 27004KT 16/03 A2996 RMK A01 T01640025  RH  039%=      5-min Rain = 0
KAM3 231907Z 31007KT 16/03 A2996 RMK A01 T01640025  RH  039%=      5-min Rain = 0
KAM3 231908Z 33006G11KT 16/02 A2996 RMK A01 T01640020  RH  038%=      5-min Rain = 0
KAM3 231909Z 31009KT 16/02 A2996 RMK A01 T01640024  RH  039%=      5-min Rain = 0
KAM3 231910Z 31008KT 17/02 A2996 RMK A01 T01660020  RH  037%=      5-min Rain = 0
KAM3 231911Z 28009KT 17/02 A2996 RMK A01 T01670020  RH  037%=      5-min Rain = 0
KAM3 231912Z 27008KT 17/01 A2996 RMK A01 T01690008  RH  034%=      5-min Rain = 0
KAM3 231913Z 25003KT 17/M00 A2996 RMK A01 T01671001  RH  032%=      5-min Rain = 0
KAM3 231914Z 29004KT 17/00 A2996 RMK A01 T01660002  RH  033%=      5-min Rain = 0
KAM3 231915Z 28008KT 17/01 A2996 RMK A01 T01660007  RH  034%=      5-min Rain = 0
KAM3 231916Z 28009KT 17/01 A2996 RMK A01 T01700005  RH  033%=      5-min Rain = 0
KAM3 231917Z 27007KT 17/00 A2995 RMK A01 T01710003  RH  032%=      5-min Rain = 0
KAM3 231918Z 30007KT 17/00 A2995 RMK A01 T01700004  RH  032%=      5-min Rain = 0
KAM3 231919Z 30006KT 17/00 A2995 RMK A01 T01720004  RH  032%=      5-min Rain = 0
KAM3 231920Z 28009KT 17/M00 A2995 RMK A01 T01711002  RH  031%=      5-min Rain = 0
KAM3 231921Z 28007KT 17/M01 A2996 RMK A01 T01701007  RH  030%=      5-min Rain = 0
KAM3 231922Z 27006KT 17/M00 A2996 RMK A01 T01701003  RH  031%=      5-min Rain = 0
KAM3 231923Z 28008KT 17/M00 A2996 RMK A01 T01731003  RH  030%=      5-min Rain = 0
KAM3 231924Z 29008KT 17/M01 A2996 RMK A01 T01731011  RH  028%=      5-min Rain = 0
KAM3 231925Z 29008KT 17/M00 A2995 RMK A01 T01731001  RH  031%=      5-min Rain = 0
KAM3 231926Z 27010KT 17/M02 A2995 RMK A01 T01731018  RH  027%=      5-min Rain = 0
KAM3 231927Z 27010KT 17/M03 A2995 RMK A01 T01711032  RH  025%=      5-min Rain = 0
KAM3 231928Z 25008KT 17/M03 A2995 RMK A01 T01691026  RH  026%=      5-min Rain = 0
KAM3 231929Z 26007KT 17/M02 A2995 RMK A01 T01691022  RH  027%=      5-min Rain = 0
KAM3 231930Z 28010KT 17/M02 A2995 RMK A01 T01711015  RH  028%=      5-min Rain = 0
KAM3 231931Z 27012KT 17/M01 A2995 RMK A01 T01731014  RH  028%=      5-min Rain = 0
KAM3 231932Z 26008KT 17/M02 A2995 RMK A01 T01741021  RH  026%=      5-min Rain = 0
KAM3 231933Z 27005KT 17/M02 A2995 RMK A01 T01731018  RH  027%=      5-min Rain = 0
KAM3 231934Z 25008KT 17/M02 A2995 RMK A01 T01741015  RH  028%=      5-min Rain = 0
KAM3 231935Z 25011G17KT 18/M02 A2995 RMK A01 T01761021  RH  026%=      5-min Rain = 0
KAM3 231936Z 26014KT 18/M02 A2995 RMK A01 T01781017  RH  026%=      5-min Rain = 0
KAM3 231937Z 27013KT 18/M02 A2995 RMK A01 T01791022  RH  025%=      5-min Rain = 0
KAM3 231938Z 27014KT 18/M02 A2995 RMK A01 T01761024  RH  026%=      5-min Rain = 0
KAM3 231939Z 27013KT 17/M02 A2995 RMK A01 T01741022  RH  026%=      5-min Rain = 0
KAM3 231940Z 26010KT 17/M02 A2995 RMK A01 T01721022  RH  027%=      5-min Rain = 0
KAM3 231941Z 26012KT 17/M02 A2995 RMK A01 T01731017  RH  028%=      5-min Rain = 0
KAM3 231942Z 26009KT 17/M01 A2995 RMK A01 T01741014  RH  028%=      5-min Rain = 0
KAM3 231943Z 27008KT 18/M00 A2995 RMK A01 T01801002  RH  029%=      5-min Rain = 0
KAM3 231944Z 29007KT 18/M01 A2995 RMK A01 T01831013  RH  026%=      5-min Rain = 0
KAM3 231945Z 30008KT 18/M01 A2995 RMK A01 T01811013  RH  027%=      5-min Rain = 0
KAM3 231946Z 29010KT 18/M01 A2995 RMK A01 T01791011  RH  027%=      5-min Rain = 0
KAM3 231947Z 29010G15KT 18/M01 A2995 RMK A01 T01801010  RH  028%=      5-min Rain = 0
KAM3 231948Z 25011KT 18/M01 A2995 RMK A01 T01781012  RH  027%=      5-min Rain = 0
KAM3 231949Z 26012G17KT 18/M01 A2995 RMK A01 T01771014  RH  027%=      5-min Rain = 0
KAM3 231950Z 26013KT 18/M01 A2995 RMK A01 T01751011  RH  028%=      5-min Rain = 0
KAM3 231951Z 25010KT 18/M01 A2995 RMK A01 T01761011  RH  028%=      5-min Rain = 0
KAM3 231952Z 26008KT 18/M02 A2995 RMK A01 T01751015  RH  027%=      5-min Rain = 0
KAM3 231953Z 28010KT 17/M01 A2995 RMK A01 T01741011  RH  028%=      5-min Rain = 0
KAM3 231954Z 30007KT 17/M02 A2995 RMK A01 T01731015  RH  028%=      5-min Rain = 0
KAM3 231955Z 31007KT 17/M02 A2995 RMK A01 T01701016  RH  028%=      5-min Rain = 0
KAM3 231956Z 30006KT 17/M01 A2995 RMK A01 T01711008  RH  030%=      5-min Rain = 0
KAM3 231957Z 27007KT 18/M00 A2995 RMK A01 T01761001  RH  030%=      5-min Rain = 0
KAM3 231958Z 26012KT 18/M00 A2995 RMK A01 T01801002  RH  029%=      5-min Rain = 0
KAM3 231959Z 26009KT 18/M01 A2995 RMK A01 T01811011  RH  027%=      5-min Rain = 0
KAM3 232000Z 26011KT 18/M01 A2995 RMK A01 T01811007  RH  028%=      5-min Rain = 0
KAM3 232001Z 25009KT 18/M01 A2995 RMK A01 T01821008  RH  027%=      5-min Rain = 0
KAM3 232002Z 26008KT 18/M01 A2995 RMK A01 T01821009  RH  027%=      5-min Rain = 0
KAM3 232003Z 25011G16KT 18/M01 A2995 RMK A01 T01811012  RH  027%=      5-min Rain = 0
KAM3 232004Z 26009KT 18/M01 A2995 RMK A01 T01811006  RH  028%=      5-min Rain = 0
KAM3 232005Z 27006KT 18/M02 A2995 RMK A01 T01831015  RH  026%=      5-min Rain = 0
KAM3 232006Z 24006KT 18/M02 A2995 RMK A01 T01791021  RH  026%=      5-min Rain = 0
KAM3 232007Z 25005KT 18/M01 A2994 RMK A01 T01761013  RH  028%=      5-min Rain = 0
KAM3 232008Z 26009KT 18/M01 A2994 RMK A01 T01791009  RH  028%=      5-min Rain = 0
KAM3 232009Z 29009KT 18/M01 A2995 RMK A01 T01811008  RH  028%=      5-min Rain = 0
KAM3 232010Z 28007KT 18/M01 A2995 RMK A01 T01801006  RH  028%=      5-min Rain = 0
KAM3 232011Z 28008G14KT 18/M01 A2995 RMK A01 T01781007  RH  029%=      5-min Rain = 0
KAM3 232012Z 26010KT 18/M01 A2995 RMK A01 T01781012  RH  027%=      5-min Rain = 0
KAM3 232013Z 24009KT 18/M02 A2995 RMK A01 T01801015  RH  027%=      5-min Rain = 0
KAM3 232014Z 28010KT 18/M02 A2995 RMK A01 T01811015  RH  026%=      5-min Rain = 0
KAM3 232015Z 29007KT 18/M01 A2995 RMK A01 T01811014  RH  027%=      5-min Rain = 0
KAM3 232016Z 29008KT 18/M02 A2994 RMK A01 T01801015  RH  026%=      5-min Rain = 0
KAM3 232017Z 27010KT 18/M01 A2994 RMK A01 T01801014  RH  027%=      5-min Rain = 0
KAM3 232018Z 27008KT 18/M01 A2994 RMK A01 T01821012  RH  027%=      5-min Rain = 0
KAM3 232019Z 28009KT 19/M01 A2994 RMK A01 T01851011  RH  027%=      5-min Rain = 0
KAM3 232020Z 28009KT 19/M01 A2994 RMK A01 T01861014  RH  026%=      5-min Rain = 0
KAM3 232021Z 25010KT 19/M02 A2994 RMK A01 T01861015  RH  026%=      5-min Rain = 0
KAM3 232022Z 25013KT 19/M02 A2994 RMK A01 T01861016  RH  026%=      5-min Rain = 0
KAM3 232023Z 23010KT 19/M02 A2994 RMK A01 T01861020  RH  025%=      5-min Rain = 0
KAM3 232024Z 24010G15KT 19/M02 A2994 RMK A01 T01851020  RH  025%=      5-min Rain = 0
KAM3 232025Z 25012KT 19/M02 A2994 RMK A01 T01861015  RH  026%=      5-min Rain = 0
KAM3 232026Z 25013KT 19/M02 A2994 RMK A01 T01881016  RH  025%=      5-min Rain = 0
KAM3 232027Z 23011KT 19/M02 A2994 RMK A01 T01871020  RH  024%=      5-min Rain = 0
KAM3 232028Z 23009KT 19/M02 A2994 RMK A01 T01851022  RH  024%=      5-min Rain = 0
KAM3 232029Z 23008KT 18/M02 A2994 RMK A01 T01841020  RH  025%=      5-min Rain = 0
KAM3 232030Z 26007KT 19/M01 A2994 RMK A01 T01851013  RH  026%=      5-min Rain = 0
KAM3 232031Z 28009KT 19/M01 A2994 RMK A01 T01871013  RH  026%=      5-min Rain = 0
KAM3 232032Z 26007KT 19/M02 A2994 RMK A01 T01881016  RH  025%=      5-min Rain = 0
KAM3 232033Z 26009KT 19/M02 A2994 RMK A01 T01881015  RH  025%=      5-min Rain = 0
KAM3 232034Z 22010KT 19/M02 A2994 RMK A01 T01881016  RH  025%=      5-min Rain = 0
KAM3 232035Z 22012KT 19/M02 A2994 RMK A01 T01871021  RH  024%=      5-min Rain = 0
KAM3 232036Z 24010KT 19/M01 A2994 RMK A01 T01881013  RH  026%=      5-min Rain = 0
KAM3 232037Z 26006KT 19/M01 A2994 RMK A01 T01931012  RH  025%=      5-min Rain = 0
KAM3 232038Z 24007KT 19/M02 A2994 RMK A01 T01941016  RH  024%=      5-min Rain = 0
KAM3 232039Z 23009KT 19/M01 A2994 RMK A01 T01941014  RH  024%=      5-min Rain = 0
KAM3 232040Z 22009KT 20/M02 A2994 RMK A01 T01951015  RH  024%=      5-min Rain = 0
KAM3 232041Z 22010KT 20/M02 A2993 RMK A01 T01951020  RH  023%=      5-min Rain = 0
KAM3 232042Z 23008KT 19/M02 A2993 RMK A01 T01911018  RH  024%=      5-min Rain = 0
KAM3 232043Z 25009KT 19/M01 A2993 RMK A01 T01921013  RH  025%=      5-min Rain = 0
KAM3 232044Z 28010KT 19/M02 A2993 RMK A01 T01931018  RH  024%=      5-min Rain = 0
KAM3 232045Z 29009KT 19/M02 A2993 RMK A01 T01911018  RH  024%=      5-min Rain = 0
KAM3 232046Z 30008KT 19/M02 A2993 RMK A01 T01891019  RH  024%=      5-min Rain = 0
KAM3 232047Z 31008KT 19/M02 A2993 RMK A01 T01891015  RH  025%=      5-min Rain = 0
KAM3 232048Z 30007KT 19/M02 A2993 RMK A01 T01911015  RH  025%=      5-min Rain = 0
KAM3 232049Z 28005KT 19/M02 A2993 RMK A01 T01921020  RH  024%=      5-min Rain = 0
KAM3 232050Z 27005G10KT 19/M02 A2993 RMK A01 T01901023  RH  024%=      5-min Rain = 0
KAM3 232051Z 26008KT 19/M02 A2993 RMK A01 T01891019  RH  024%=      5-min Rain = 0
KAM3 232052Z 27011KT 19/M02 A2993 RMK A01 T01911020  RH  024%=      5-min Rain = 0
KAM3 232053Z 26007KT 19/M02 A2993 RMK A01 T01921021  RH  023%=      5-min Rain = 0
KAM3 232054Z 27010KT 19/M02 A2993 RMK A01 T01921020  RH  024%=      5-min Rain = 0
KAM3 232055Z 26010KT 19/M02 A2993 RMK A01 T01931020  RH  024%=      5-min Rain = 0
KAM3 232056Z 24010KT 19/M02 A2993 RMK A01 T01941019  RH  024%=      5-min Rain = 0
KAM3 232057Z 24013KT 20/M02 A2993 RMK A01 T01951019  RH  024%=      5-min Rain = 0
KAM3 232058Z 23010KT 20/M02 A2993 RMK A01 T01951020  RH  023%=      5-min Rain = 0
KAM3 232059Z 24013KT 20/M02 A2993 RMK A01 T01951020  RH  023%=      5-min Rain = 0
KAM3 232100Z 25013G18KT 20/M02 A2993 RMK A01 T01951015  RH  024%=      5-min Rain = 0
KAM3 232101Z 24013KT 20/M01 A2993 RMK A01 T01971014  RH  024%=      5-min Rain = 0
KAM3 232102Z 25009KT 20/M02 A2993 RMK A01 T01971018  RH  023%=      5-min Rain = 0
KAM3 232103Z 25014KT 20/M01 A2992 RMK A01 T01961010  RH  025%=      5-min Rain = 0
KAM3 232104Z 25013KT 20/M01 A2992 RMK A01 T01991014  RH  024%=      5-min Rain = 0
KAM3 232105Z 26012KT 20/M01 A2992 RMK A01 T02011010  RH  024%=      5-min Rain = 0
KAM3 232106Z 27017KT 20/M02 A2992 RMK A01 T02021015  RH  023%=      5-min Rain = 0
KAM3 232107Z 27014G19KT 20/M02 A2992 RMK A01 T01991017  RH  023%=      5-min Rain = 0
KAM3 232108Z 27012KT 20/M02 A2992 RMK A01 T01981015  RH  024%=      5-min Rain = 0
KAM3 232109Z 27011KT 20/M02 A2992 RMK A01 T01961018  RH  023%=      5-min Rain = 0
KAM3 232110Z 27011KT 20/M01 A2992 RMK A01 T01961014  RH  024%=      5-min Rain = 0
KAM3 232111Z 27012KT 20/M01 A2992 RMK A01 T01971012  RH  024%=      5-min Rain = 0
KAM3 232112Z 27010KT 20/M01 A2992 RMK A01 T01971013  RH  024%=      5-min Rain = 0
KAM3 232113Z 26009KT 20/M02 A2992 RMK A01 T01971016  RH  024%=      5-min Rain = 0
KAM3 232114Z 27011KT 20/M02 A2992 RMK A01 T01951018  RH  024%=      5-min Rain = 0
KAM3 232115Z 28009KT 19/M01 A2992 RMK A01 T01941014  RH  025%=      5-min Rain = 0
KAM3 232116Z 27011KT 20/M01 A2992 RMK A01 T01961013  RH  024%=      5-min Rain = 0
KAM3 232117Z 28010KT 20/M02 A2992 RMK A01 T01951017  RH  024%=      5-min Rain = 0
KAM3 232118Z 29009KT 19/M02 A2992 RMK A01 T01931016  RH  024%=      5-min Rain = 0
KAM3 232119Z 30009KT 19/M02 A2992 RMK A01 T01931017  RH  024%=      5-min Rain = 0
KAM3 232120Z 28010KT 19/M02 A2992 RMK A01 T01931017  RH  024%=      5-min Rain = 0
KAM3 232121Z 27008G13KT 20/M01 A2992 RMK A01 T01951010  RH  025%=      5-min Rain = 0
KAM3 232122Z 27012KT 20/M01 A2992 RMK A01 T01981012  RH  024%=      5-min Rain = 0
KAM3 232123Z 25009KT 20/M01 A2992 RMK A01 T01991012  RH  024%=      5-min Rain = 0
KAM3 232124Z 24011KT 20/M01 A2992 RMK A01 T01991013  RH  024%=      5-min Rain = 0
KAM3 232125Z 24011KT 20/M02 A2992 RMK A01 T01991016  RH  023%=      5-min Rain = 0
KAM3 232126Z 26008KT 20/M02 A2992 RMK A01 T01971018  RH  023%=      5-min Rain = 0
KAM3 232127Z 28006KT 20/M02 A2992 RMK A01 T01971017  RH  023%=      5-min Rain = 0
KAM3 232128Z 30004KT 20/M02 A2992 RMK A01 T01971020  RH  023%=      5-min Rain = 0
KAM3 232129Z 23005KT 20/M02 A2992 RMK A01 T01971020  RH  023%=      5-min Rain = 0
KAM3 232130Z 23004KT 20/M02 A2992 RMK A01 T01981019  RH  023%=      5-min Rain = 0
KAM3 232131Z 27004KT 20/M02 A2992 RMK A01 T01991018  RH  023%=      5-min Rain = 0
KAM3 232132Z 25007KT 20/M01 A2992 RMK A01 T02011011  RH  024%=      5-min Rain = 0
KAM3 232133Z 26009KT 20/M02 A2992 RMK A01 T02021018  RH  023%=      5-min Rain = 0
KAM3 232134Z 24010KT 20/M02 A2992 RMK A01 T02001017  RH  023%=      5-min Rain = 0
KAM3 232135Z 25011KT 20/M02 A2992 RMK A01 T02001020  RH  023%=      5-min Rain = 0
KAM3 232136Z 26013KT 20/M02 A2992 RMK A01 T01991017  RH  023%=      5-min Rain = 0
KAM3 232137Z 26009KT 20/M02 A2992 RMK A01 T02001022  RH  022%=      5-min Rain = 0
KAM3 232138Z 25005KT 20/M02 A2992 RMK A01 T01991020  RH  023%=      5-min Rain = 0
KAM3 232139Z 24011KT 20/M02 A2992 RMK A01 T01981023  RH  022%=      5-min Rain = 0
KAM3 232140Z 26013KT 20/M02 A2991 RMK A01 T01991022  RH  022%=      5-min Rain = 0
KAM3 232141Z 26012KT 20/M02 A2992 RMK A01 T02011022  RH  022%=      5-min Rain = 0
KAM3 232142Z 25012KT 20/M02 A2992 RMK A01 T02021024  RH  022%=      5-min Rain = 0
KAM3 232143Z 25011KT 20/M03 A2992 RMK A01 T02011026  RH  021%=      5-min Rain = 0
KAM3 232144Z 25010KT 20/M02 A2992 RMK A01 T02001023  RH  022%=      5-min Rain = 0
KAM3 232145Z 26011KT 20/M02 A2992 RMK A01 T02011023  RH  022%=      5-min Rain = 0
KAM3 232146Z 26008KT 20/M03 A2991 RMK A01 T02011027  RH  021%=      5-min Rain = 0
KAM3 232147Z 27009KT 20/M03 A2991 RMK A01 T02001027  RH  021%=      5-min Rain = 0
KAM3 232148Z 27010KT 20/M03 A2991 RMK A01 T01991025  RH  022%=      5-min Rain = 0
KAM3 232149Z 25010KT 20/M02 A2991 RMK A01 T02001019  RH  023%=      5-min Rain = 0
KAM3 232150Z 23010KT 20/M02 A2991 RMK A01 T02031021  RH  022%=      5-min Rain = 0
KAM3 232151Z 23012KT 20/M02 A2991 RMK A01 T02041022  RH  022%=      5-min Rain = 0
KAM3 232152Z 22014KT 20/M02 A2991 RMK A01 T02041022  RH  022%=      5-min Rain = 0
KAM3 232153Z 21011KT 20/M03 A2991 RMK A01 T02041027  RH  021%=      5-min Rain = 0
KAM3 232154Z 20009KT 20/M03 A2991 RMK A01 T02021027  RH  021%=      5-min Rain = 0
KAM3 232155Z 22009KT 20/M02 A2991 RMK A01 T02021024  RH  022%=      5-min Rain = 0
KAM3 232156Z 25011KT 20/M02 A2991 RMK A01 T02041021  RH  022%=      5-min Rain = 0
KAM3 232157Z 24009KT 20/M02 A2991 RMK A01 T02041024  RH  021%=      5-min Rain = 0
KAM3 232158Z 26010KT 20/M02 A2991 RMK A01 T02041024  RH  021%=      5-min Rain = 0
KAM3 232159Z 25015KT 21/M02 A2991 RMK A01 T02051018  RH  022%=      5-min Rain = 0
KAM3 232200Z 24013G18KT 21/M03 A2991 RMK A01 T02071025  RH  021%=      5-min Rain = 0
KAM3 232201Z 24009KT 21/M03 A2991 RMK A01 T02061028  RH  020%=      5-min Rain = 0
KAM3 232202Z 25010KT 20/M03 A2991 RMK A01 T02041027  RH  021%=      5-min Rain = 0
KAM3 232203Z 26011KT 20/M03 A2991 RMK A01 T02041027  RH  021%=      5-min Rain = 0
KAM3 232204Z 26015KT 21/M03 A2991 RMK A01 T02051030  RH  020%=      5-min Rain = 0
KAM3 232205Z 26014G19KT 20/M03 A2991 RMK A01 T02041030  RH  020%=      5-min Rain = 0
KAM3 232206Z 25011KT 20/M03 A2991 RMK A01 T02031029  RH  021%=      5-min Rain = 0
KAM3 232207Z 25008KT 21/M02 A2991 RMK A01 T02051023  RH  021%=      5-min Rain = 0
KAM3 232208Z 27008KT 21/M03 A2991 RMK A01 T02081026  RH  021%=      5-min Rain = 0
KAM3 232209Z 26012KT 21/M03 A2991 RMK A01 T02081030  RH  020%=      5-min Rain = 0
KAM3 232210Z 25017KT 21/M03 A2991 RMK A01 T02071030  RH  020%=      5-min Rain = 0
KAM3 232211Z 24014KT 21/M03 A2991 RMK A01 T02071034  RH  019%=      5-min Rain = 0
KAM3 232212Z 24011KT 21/M03 A2991 RMK A01 T02061034  RH  020%=      5-min Rain = 0
KAM3 232213Z 24011KT 21/M03 A2991 RMK A01 T02071030  RH  020%=      5-min Rain = 0
KAM3 232214Z 25011KT 21/M03 A299 RMK A01 T02091033  RH  019%=      5-min Rain = 0
KAM3 232215Z 24012G17KT 21/M03 A299 RMK A01 T02091031  RH  020%=      5-min Rain = 0
KAM3 232216Z 25012KT 21/M03 A299 RMK A01 T02091032  RH  020%=      5-min Rain = 0
KAM3 232217Z 26012KT 21/M03 A299 RMK A01 T02081033  RH  020%=      5-min Rain = 0
KAM3 232218Z 27012KT 21/M03 A299 RMK A01 T02071032  RH  020%=      5-min Rain = 0
KAM3 232219Z 26013KT 21/M03 A299 RMK A01 T02071030  RH  020%=      5-min Rain = 0
KAM3 232220Z 27014KT 21/M03 A299 RMK A01 T02071025  RH  021%=      5-min Rain = 0
KAM3 232221Z 25012KT 21/M03 A299 RMK A01 T02081027  RH  020%=      5-min Rain = 0
KAM3 232222Z 26016KT 21/M03 A299 RMK A01 T02101029  RH  020%=      5-min Rain = 0
KAM3 232223Z 26011KT 21/M04 A299 RMK A01 T02081035  RH  019%=      5-min Rain = 0
KAM3 232224Z 26011KT 21/M03 A299 RMK A01 T02061033  RH  020%=      5-min Rain = 0
KAM3 232225Z 27014KT 21/M03 A299 RMK A01 T02071029  RH  020%=      5-min Rain = 0
KAM3 232226Z 27011KT 21/M03 A299 RMK A01 T02071033  RH  020%=      5-min Rain = 0
KAM3 232227Z 27011KT 21/M04 A299 RMK A01 T02061036  RH  019%=      5-min Rain = 0
KAM3 232228Z 26011KT 20/M03 A299 RMK A01 T02041034  RH  020%=      5-min Rain = 0
KAM3 232229Z 25013KT 21/M03 A299 RMK A01 T02061031  RH  020%=      5-min Rain = 0
KAM3 232230Z 25013KT 21/M04 A299 RMK A01 T02071035  RH  019%=      5-min Rain = 0
KAM3 232231Z 26014KT 21/M03 A299 RMK A01 T02071032  RH  020%=      5-min Rain = 0
KAM3 232232Z 26013KT 21/M03 A299 RMK A01 T02071033  RH  020%=      5-min Rain = 0
KAM3 232233Z 26008KT 21/M04 A299 RMK A01 T02061036  RH  019%=      5-min Rain = 0
KAM3 232234Z 26006KT 21/M04 A299 RMK A01 T02051035  RH  020%=      5-min Rain = 0
KAM3 232235Z 25007KT 21/M03 A299 RMK A01 T02071030  RH  020%=      5-min Rain = 0
KAM3 232236Z 26006KT 21/M03 A299 RMK A01 T02081034  RH  019%=      5-min Rain = 0
KAM3 232237Z 23007KT 21/M03 A299 RMK A01 T02091030  RH  020%=      5-min Rain = 0
KAM3 232238Z 25008KT 21/M03 A299 RMK A01 T02091032  RH  020%=      5-min Rain = 0
KAM3 232239Z 26007KT 21/M03 A299 RMK A01 T02091029  RH  020%=      5-min Rain = 0
KAM3 232240Z 25009KT 21/M02 A299 RMK A01 T02101024  RH  021%=      5-min Rain = 0
KAM3 232241Z 27011KT 21/M02 A299 RMK A01 T02121024  RH  020%=      5-min Rain = 0
KAM3 232242Z 27010KT 21/M03 A299 RMK A01 T02121025  RH  020%=      5-min Rain = 0
KAM3 232243Z 28008KT 21/M03 A299 RMK A01 T02111034  RH  019%=      5-min Rain = 0
KAM3 232244Z 28010KT 21/M03 A299 RMK A01 T02101026  RH  020%=      5-min Rain = 0
KAM3 232245Z 29010KT 21/M03 A299 RMK A01 T02101029  RH  020%=      5-min Rain = 0
KAM3 232246Z 28011KT 21/M03 A299 RMK A01 T02101030  RH  020%=      5-min Rain = 0
KAM3 232247Z 26009KT 21/M03 A299 RMK A01 T02091031  RH  020%=      5-min Rain = 0
KAM3 232248Z 24009KT 21/M03 A299 RMK A01 T02101031  RH  020%=      5-min Rain = 0
KAM3 232249Z 26008KT 21/M04 A299 RMK A01 T02101039  RH  018%=      5-min Rain = 0
KAM3 232250Z 26009KT 21/M04 A299 RMK A01 T02091038  RH  019%=      5-min Rain = 0
KAM3 232251Z 26012KT 21/M04 A299 RMK A01 T02091035  RH  019%=      5-min Rain = 0
KAM3 232252Z 26012KT 21/M04 A299 RMK A01 T02101041  RH  018%=      5-min Rain = 0
KAM3 232253Z 25009KT 21/M04 A299 RMK A01 T02091043  RH  018%=      5-min Rain = 0
KAM3 232254Z 26009KT 21/M04 A299 RMK A01 T02081044  RH  018%=      5-min Rain = 0
KAM3 232255Z 27010KT 21/M04 A299 RMK A01 T02081040  RH  019%=      5-min Rain = 0
KAM3 232256Z 27009KT 21/M04 A299 RMK A01 T02081042  RH  018%=      5-min Rain = 0
KAM3 232257Z 26006KT 21/M04 A299 RMK A01 T02081044  RH  018%=      5-min Rain = 0
KAM3 232258Z 26005KT 21/M04 A299 RMK A01 T02061042  RH  018%=      5-min Rain = 0
KAM3 232259Z 26006KT 21/M04 A299 RMK A01 T02071040  RH  019%=      5-min Rain = 0
KAM3 232300Z 25006KT 21/M04 A2989 RMK A01 T02091037  RH  019%=      5-min Rain = 0
KAM3 232301Z 26013KT 21/M04 A2989 RMK A01 T02111036  RH  019%=      5-min Rain = 0
KAM3 232302Z 25012KT 21/M04 A2989 RMK A01 T02111043  RH  018%=      5-min Rain = 0
KAM3 232303Z 25009KT 21/M04 A2989 RMK A01 T02091043  RH  018%=      5-min Rain = 0
KAM3 232304Z 25009KT 21/M04 A2989 RMK A01 T02081041  RH  018%=      5-min Rain = 0
KAM3 232305Z 25007KT 21/M04 A2989 RMK A01 T02081041  RH  018%=      5-min Rain = 0
KAM3 232306Z 24007KT 21/M03 A2989 RMK A01 T02101032  RH  019%=      5-min Rain = 0
KAM3 232307Z 26009KT 21/M04 A2989 RMK A01 T02131038  RH  018%=      5-min Rain = 0
KAM3 232308Z 26013KT 21/M04 A2989 RMK A01 T02131040  RH  018%=      5-min Rain = 0
KAM3 232309Z 27012KT 21/M04 A2989 RMK A01 T02121040  RH  018%=      5-min Rain = 0
KAM3 232310Z 28013KT 21/M04 A2989 RMK A01 T02101041  RH  018%=      5-min Rain = 0
KAM3 232311Z 28013KT 21/M04 A2989 RMK A01 T02091040  RH  018%=      5-min Rain = 0
KAM3 232312Z 27011KT 21/M04 A2989 RMK A01 T02081041  RH  018%=      5-min Rain = 0
KAM3 232313Z 27013KT 21/M04 A2989 RMK A01 T02081043  RH  018%=      5-min Rain = 0
KAM3 232314Z 28011KT 21/M04 A2989 RMK A01 T02081044  RH  018%=      5-min Rain = 0
KAM3 232315Z 28013KT 21/M04 A2989 RMK A01 T02071042  RH  018%=      5-min Rain = 0
KAM3 232316Z 25010KT 21/M04 A2989 RMK A01 T02081038  RH  019%=      5-min Rain = 0
KAM3 232317Z 25012KT 21/M04 A2989 RMK A01 T02091038  RH  019%=      5-min Rain = 0
KAM3 232318Z 24012KT 21/M04 A2989 RMK A01 T02101042  RH  018%=      5-min Rain = 0
KAM3 232319Z 26012KT 21/M04 A2989 RMK A01 T02101040  RH  018%=      5-min Rain = 0
KAM3 232320Z 28010KT 21/M04 A2989 RMK A01 T02101037  RH  019%=      5-min Rain = 0
KAM3 232321Z 29013KT 21/M04 A2989 RMK A01 T02101038  RH  019%=      5-min Rain = 0
KAM3 232322Z 28011KT 21/M04 A2989 RMK A01 T02101040  RH  018%=      5-min Rain = 0
KAM3 232323Z 28010KT 21/M04 A2989 RMK A01 T02101037  RH  019%=      5-min Rain = 0
KAM3 232324Z 27014KT 21/M04 A2989 RMK A01 T02101040  RH  018%=      5-min Rain = 0
KAM3 232325Z 27013KT 21/M04 A2989 RMK A01 T02091043  RH  018%=      5-min Rain = 0
KAM3 232326Z 27011KT 21/M04 A2989 RMK A01 T02081044  RH  018%=      5-min Rain = 0
KAM3 232327Z 27013KT 21/M04 A2989 RMK A01 T02071040  RH  019%=      5-min Rain = 0
KAM3 232328Z 25014KT 21/M04 A2989 RMK A01 T02091039  RH  019%=      5-min Rain = 0
KAM3 232329Z 25013KT 21/M04 A2989 RMK A01 T02091040  RH  018%=      5-min Rain = 0
KAM3 232330Z 26013KT 21/M04 A2989 RMK A01 T02091040  RH  018%=      5-min Rain = 0
KAM3 232331Z 25011KT 21/M04 A2989 RMK A01 T02091041  RH  018%=      5-min Rain = 0
KAM3 232332Z 24012KT 21/M04 A2989 RMK A01 T02081041  RH  018%=      5-min Rain = 0
KAM3 232333Z 25012KT 21/M04 A2989 RMK A01 T02081044  RH  018%=      5-min Rain = 0
KAM3 232334Z 25009KT 21/M04 A2989 RMK A01 T02081042  RH  018%=      5-min Rain = 0
KAM3 232335Z 25010KT 21/M04 A2989 RMK A01 T02081043  RH  018%=      5-min Rain = 0
KAM3 232336Z 25011KT 21/M04 A2989 RMK A01 T02081041  RH  018%=      5-min Rain = 0
KAM3 232337Z 26010KT 21/M04 A2989 RMK A01 T02081039  RH  019%=      5-min Rain = 0
KAM3 232338Z 25011KT 21/M04 A2989 RMK A01 T02081038  RH  019%=      5-min Rain = 0
KAM3 232339Z 25010KT 21/M04 A2989 RMK A01 T02091039  RH  019%=      5-min Rain = 0
KAM3 232340Z 25009KT 21/M04 A2989 RMK A01 T02091038  RH  019%=      5-min Rain = 0
KAM3 232341Z 25007KT 21/M04 A2989 RMK A01 T02091041  RH  018%=      5-min Rain = 0
KAM3 232342Z 27007KT 21/M04 A2989 RMK A01 T02081041  RH  018%=      5-min Rain = 0
KAM3 232343Z 27009KT 21/M04 A2989 RMK A01 T02081037  RH  019%=      5-min Rain = 0
KAM3 232344Z 27012KT 21/M04 A2989 RMK A01 T02071040  RH  019%=      5-min Rain = 0
KAM3 232345Z 27010KT 21/M04 A2989 RMK A01 T02061042  RH  018%=      5-min Rain = 0
KAM3 232346Z 27008KT 21/M04 A2989 RMK A01 T02051039  RH  019%=      5-min Rain = 0
KAM3 232347Z 27008KT 21/M04 A2989 RMK A01 T02051039  RH  019%=      5-min Rain = 0
KAM3 232348Z 26007KT 21/M04 A2989 RMK A01 T02061039  RH  019%=      5-min Rain = 0
KAM3 232349Z 25008KT 21/M04 A2989 RMK A01 T02061040  RH  019%=      5-min Rain = 0
KAM3 232350Z 25008KT 21/M04 A2989 RMK A01 T02061038  RH  019%=      5-min Rain = 0
KAM3 232351Z 26006KT 21/M04 A2989 RMK A01 T02061040  RH  019%=      5-min Rain = 0
KAM3 232352Z 27004KT 21/M04 A2989 RMK A01 T02061041  RH  019%=      5-min Rain = 0
KAM3 232353Z 25006KT 21/M04 A2989 RMK A01 T02061040  RH  019%=      5-min Rain = 0
KAM3 232354Z 26007KT 20/M04 A2989 RMK A01 T02041042  RH  019%=      5-min Rain = 0
KAM3 232355Z 25005KT 20/M05 A2989 RMK A01 T02011045  RH  019%=      5-min Rain = 0
KAM3 232356Z 26007KT 20/M05 A2989 RMK A01 T01991046  RH  019%=      5-min Rain = 0
KAM3 232357Z 28005KT 20/M05 A2989 RMK A01 T01981045  RH  019%=      5-min Rain = 0
KAM3 232358Z 28006KT 20/M04 A2989 RMK A01 T01971041  RH  020%=      5-min Rain = 0
KAM3 232359Z 28005KT 20/M05 A2989 RMK A01 T01951045  RH  019%=      5-min Rain = 0
KAM3 240000Z 27004KT 19/M04 A2989 RMK A01 T01941043  RH  020%=      5-min Rain = 0
KAM3 240001Z 27005KT 19/M04 A2989 RMK A01 T01921040  RH  020%=      5-min Rain = 0
KAM3 240002Z 28004KT 19/M04 A2989 RMK A01 T01911041  RH  020%=      5-min Rain = 0
KAM3 240003Z 27006KT 19/M04 A2989 RMK A01 T01891040  RH  021%=      5-min Rain = 0
KAM3 240004Z 27005KT 19/M04 A2989 RMK A01 T01891041  RH  021%=      5-min Rain = 0
KAM3 240005Z 27004KT 19/M04 A2989 RMK A01 T01881037  RH  021%=      5-min Rain = 0
KAM3 240006Z 27004KT 19/M04 A2989 RMK A01 T01871037  RH  022%=      5-min Rain = 0
KAM3 240007Z 28004KT 19/M04 A2989 RMK A01 T01861036  RH  022%=      5-min Rain = 0
KAM3 240008Z 29004KT 19/M04 A2989 RMK A01 T01851035  RH  022%=      5-min Rain = 0
KAM3 240009Z 29003KT 19/M03 A2989 RMK A01 T01851034  RH  022%=      5-min Rain = 0
KAM3 240010Z 28003KT 18/M03 A2989 RMK A01 T01841034  RH  022%=      5-min Rain = 0
KAM3 240011Z 27003KT 18/M03 A299 RMK A01 T01841034  RH  023%=      5-min Rain = 0
KAM3 240012Z 27003KT 18/M03 A299 RMK A01 T01841033  RH  023%=      5-min Rain = 0
KAM3 240013Z 26005KT 18/M03 A299 RMK A01 T01831034  RH  023%=      5-min Rain = 0
KAM3 240014Z 28004KT 18/M03 A299 RMK A01 T01841034  RH  023%=      5-min Rain = 0
KAM3 240015Z 28005KT 19/M03 A299 RMK A01 T01851032  RH  023%=      5-min Rain = 0
KAM3 240016Z 27004KT 19/M03 A299 RMK A01 T01851031  RH  023%=      5-min Rain = 0
KAM3 240017Z 27005KT 18/M03 A299 RMK A01 T01841031  RH  023%=      5-min Rain = 0
KAM3 240018Z 26004KT 18/M03 A299 RMK A01 T01841029  RH  023%=      5-min Rain = 0
KAM3 240019Z 26004KT 19/M03 A299 RMK A01 T01851029  RH  023%=      5-min Rain = 0
KAM3 240020Z 26003KT 19/M03 A299 RMK A01 T01851027  RH  024%=      5-min Rain = 0
KAM3 240021Z 26003KT 19/M03 A299 RMK A01 T01851026  RH  024%=      5-min Rain = 0
KAM3 240022Z 26003KT 19/M03 A299 RMK A01 T01851025  RH  024%=      5-min Rain = 0
KAM3 240023Z 26003KT 19/M03 A299 RMK A01 T01861025  RH  024%=      5-min Rain = 0
KAM3 240024Z 26003KT 19/M03 A299 RMK A01 T01861025  RH  024%=      5-min Rain = 0
KAM3 240025Z 26003KT 19/M03 A299 RMK A01 T01861025  RH  024%=      5-min Rain = 0
KAM3 240026Z 26003KT 19/M03 A299 RMK A01 T01861025  RH  024%=      5-min Rain = 0
KAM3 240027Z 25003KT 19/M03 A299 RMK A01 T01861025  RH  024%=      5-min Rain = 0
KAM3 240028Z 25003KT 19/M02 A299 RMK A01 T01871020  RH  024%=      5-min Rain = 0
KAM3 240029Z 25003KT 19/M02 A299 RMK A01 T01881021  RH  024%=      5-min Rain = 0
KAM3 240030Z 25002KT 19/M02 A299 RMK A01 T01881022  RH  024%=      5-min Rain = 0
KAM3 240031Z 24002KT 19/M02 A299 RMK A01 T01881022  RH  024%=      5-min Rain = 0
KAM3 240032Z 22002KT 19/M02 A299 RMK A01 T01881020  RH  024%=      5-min Rain = 0
KAM3 240033Z 21002KT 19/M02 A299 RMK A01 T01881022  RH  024%=      5-min Rain = 0
KAM3 240034Z 20001KT 19/M02 A299 RMK A01 T01871021  RH  024%=      5-min Rain = 0
KAM3 240035Z 19001KT 19/M02 A299 RMK A01 T01871021  RH  024%=      5-min Rain = 0
KAM3 240036Z 20001KT 19/M02 A299 RMK A01 T01861021  RH  024%=      5-min Rain = 0
KAM3 240037Z 21001KT 19/M02 A299 RMK A01 T01861023  RH  024%=      5-min Rain = 0
KAM3 240038Z 21001KT 19/M02 A299 RMK A01 T01861024  RH  024%=      5-min Rain = 0
KAM3 240039Z 21001KT 19/M02 A299 RMK A01 T01851024  RH  024%=      5-min Rain = 0
KAM3 240040Z 20001KT 19/M02 A299 RMK A01 T01851024  RH  024%=      5-min Rain = 0
KAM3 240041Z 20001KT 19/M03 A299 RMK A01 T01851025  RH  024%=      5-min Rain = 0
KAM3 240042Z 21001KT 19/M02 A299 RMK A01 T01861024  RH  024%=      5-min Rain = 0
KAM3 240043Z 22001KT 19/M03 A299 RMK A01 T01851025  RH  024%=      5-min Rain = 0
KAM3 240044Z 23001KT 19/M03 A299 RMK A01 T01851028  RH  023%=      5-min Rain = 0
KAM3 240045Z 25001KT 19/M03 A299 RMK A01 T01851028  RH  023%=      5-min Rain = 0
KAM3 240046Z 25001KT 19/M03 A299 RMK A01 T01861030  RH  023%=      5-min Rain = 0
KAM3 240047Z 25001KT 19/M03 A299 RMK A01 T01861030  RH  023%=      5-min Rain = 0
KAM3 240048Z 26001KT 19/M03 A299 RMK A01 T01861031  RH  023%=      5-min Rain = 0
KAM3 240049Z 26001KT 19/M03 A299 RMK A01 T01861031  RH  023%=      5-min Rain = 0
KAM3 240050Z 27001KT 19/M03 A299 RMK A01 T01861030  RH  023%=      5-min Rain = 0
KAM3 240051Z 27001KT 19/M03 A299 RMK A01 T01861030  RH  023%=      5-min Rain = 0
KAM3 240052Z 26001KT 19/M03 A299 RMK A01 T01871031  RH  023%=      5-min Rain = 0
KAM3 240053Z 25001KT 19/M03 A299 RMK A01 T01871031  RH  023%=      5-min Rain = 0
KAM3 240054Z 25001KT 19/M03 A299 RMK A01 T01871030  RH  023%=      5-min Rain = 0
KAM3 240055Z 25001KT 19/M03 A299 RMK A01 T01871030  RH  023%=      5-min Rain = 0
KAM3 240056Z 25001KT 19/M03 A299 RMK A01 T01861030  RH  023%=      5-min Rain = 0
KAM3 240057Z 25001KT 19/M03 A299 RMK A01 T01851031  RH  023%=      5-min Rain = 0
KAM3 240058Z 24001KT 19/M03 A299 RMK A01 T01851031  RH  023%=      5-min Rain = 0
KAM3 240059Z 22001KT 18/M03 A299 RMK A01 T01841031  RH  023%=      5-min Rain = 0
KAM3 240100Z 21001KT 18/M03 A299 RMK A01 T01831031  RH  023%=      5-min Rain = 0
KAM3 240101Z 21001KT 18/M03 A299 RMK A01 T01831031  RH  023%=      5-min Rain = 0
KAM3 240102Z 21001KT 18/M03 A299 RMK A01 T01821030  RH  023%=      5-min Rain = 0
KAM3 240103Z 21001KT 18/M03 A299 RMK A01 T01811031  RH  023%=      5-min Rain = 0
KAM3 240104Z 22001KT 18/M03 A299 RMK A01 T01811031  RH  023%=      5-min Rain = 0
KAM3 240105Z 22001KT 18/M03 A299 RMK A01 T01801031  RH  024%=      5-min Rain = 0
KAM3 240106Z 21001KT 18/M03 A299 RMK A01 T01801031  RH  024%=      5-min Rain = 0
KAM3 240107Z 21001KT 18/M03 A299 RMK A01 T01791031  RH  024%=      5-min Rain = 0
KAM3 240108Z 21001KT 18/M03 A299 RMK A01 T01781031  RH  024%=      5-min Rain = 0
KAM3 240109Z 20001KT 18/M03 A299 RMK A01 T01781032  RH  024%=      5-min Rain = 0
KAM3 240110Z 20001KT 18/M03 A299 RMK A01 T01781034  RH  023%=      5-min Rain = 0
KAM3 240111Z 20001KT 18/M04 A299 RMK A01 T01781035  RH  023%=      5-min Rain = 0
KAM3 240112Z 20001KT 18/M04 A299 RMK A01 T01781036  RH  023%=      5-min Rain = 0
KAM3 240113Z 20001KT 18/M04 A299 RMK A01 T01781037  RH  023%=      5-min Rain = 0
KAM3 240114Z 20001KT 18/M04 A299 RMK A01 T01781038  RH  023%=      5-min Rain = 0
KAM3 240115Z 20001KT 18/M04 A299 RMK A01 T01781038  RH  023%=      5-min Rain = 0
KAM3 240116Z 20002KT 18/M04 A299 RMK A01 T01781039  RH  022%=      5-min Rain = 0
KAM3 240117Z 20002KT 18/M04 A2991 RMK A01 T01781039  RH  022%=      5-min Rain = 0
KAM3 240118Z 18002KT 18/M04 A2991 RMK A01 T01781038  RH  023%=      5-min Rain = 0
KAM3 240119Z 15006KT 18/M04 A2991 RMK A01 T01761036  RH  023%=      5-min Rain = 0
KAM3 240120Z 15007KT 17/M03 A2991 RMK A01 T01721029  RH  025%=      5-min Rain = 0
KAM3 240121Z 15007KT 17/M03 A2991 RMK A01 T01671025  RH  027%=      5-min Rain = 0
KAM3 240122Z 15007KT 16/M02 A2991 RMK A01 T01621020  RH  029%=      5-min Rain = 0
KAM3 240123Z 15008KT 16/M01 A2991 RMK A01 T01581014  RH  031%=      5-min Rain = 0
KAM3 240124Z 15008KT 16/M01 A2991 RMK A01 T01551010  RH  032%=      5-min Rain = 0
KAM3 240125Z 15008KT 15/M01 A2991 RMK A01 T01521008  RH  033%=      5-min Rain = 0
KAM3 240126Z 15007KT 15/M01 A2991 RMK A01 T01501007  RH  034%=      5-min Rain = 0
KAM3 240127Z 15008KT 15/M01 A2991 RMK A01 T01491005  RH  035%=      5-min Rain = 0
KAM3 240128Z 15008KT 15/M01 A2991 RMK A01 T01481005  RH  035%=      5-min Rain = 0
KAM3 240129Z 15008KT 15/M01 A2991 RMK A01 T01471006  RH  035%=      5-min Rain = 0
KAM3 240130Z 15007KT 15/M01 A2991 RMK A01 T01471007  RH  035%=      5-min Rain = 0
KAM3 240131Z 15007KT 15/M01 A2991 RMK A01 T01471008  RH  035%=      5-min Rain = 0
KAM3 240132Z 15006KT 15/M01 A2991 RMK A01 T01471010  RH  034%=      5-min Rain = 0
KAM3 240133Z 16006KT 15/M01 A2991 RMK A01 T01481010  RH  034%=      5-min Rain = 0
KAM3 240134Z 16006KT 15/M01 A2991 RMK A01 T01501010  RH  033%=      5-min Rain = 0
KAM3 240135Z 15007KT 15/M01 A2992 RMK A01 T01511009  RH  033%=      5-min Rain = 0
KAM3 240136Z 15008KT 15/M01 A2992 RMK A01 T01521008  RH  033%=      5-min Rain = 0
KAM3 240137Z 15008KT 15/M01 A2992 RMK A01 T01501006  RH  034%=      5-min Rain = 0
KAM3 240138Z 15007KT 15/M01 A2992 RMK A01 T01471006  RH  035%=      5-min Rain = 0
KAM3 240139Z 15007KT 15/M01 A2992 RMK A01 T01451007  RH  035%=      5-min Rain = 0
KAM3 240140Z 15007KT 15/M01 A2992 RMK A01 T01451010  RH  035%=      5-min Rain = 0
KAM3 240141Z 15008KT 15/M01 A2992 RMK A01 T01461010  RH  034%=      5-min Rain = 0
KAM3 240142Z 15007KT 15/M01 A2992 RMK A01 T01461010  RH  034%=      5-min Rain = 0
KAM3 240143Z 15007KT 15/M01 A2992 RMK A01 T01471008  RH  034%=      5-min Rain = 0
KAM3 240144Z 15007KT 15/M01 A2992 RMK A01 T01461007  RH  035%=      5-min Rain = 0
KAM3 240145Z 15007KT 14/M01 A2992 RMK A01 T01441006  RH  036%=      5-min Rain = 0
KAM3 240146Z 15007KT 14/M01 A2992 RMK A01 T01431006  RH  036%=      5-min Rain = 0
KAM3 240147Z 15007KT 14/M01 A2992 RMK A01 T01421006  RH  036%=      5-min Rain = 0
KAM3 240148Z 15007KT 14/M01 A2992 RMK A01 T01431005  RH  036%=      5-min Rain = 0
KAM3 240149Z 15007KT 14/M01 A2992 RMK A01 T01431005  RH  036%=      5-min Rain = 0
KAM3 240150Z 15007KT 14/M01 A2992 RMK A01 T01421005  RH  036%=      5-min Rain = 0
KAM3 240151Z 15007KT 14/M00 A2992 RMK A01 T01411004  RH  037%=      5-min Rain = 0
KAM3 240152Z 15007KT 14/M00 A2992 RMK A01 T01411004  RH  037%=      5-min Rain = 0
KAM3 240153Z 15007KT 14/M00 A2992 RMK A01 T01401003  RH  037%=      5-min Rain = 0
KAM3 240154Z 15007KT 14/M00 A2992 RMK A01 T01391003  RH  038%=      5-min Rain = 0
KAM3 240155Z 15007KT 14/M00 A2992 RMK A01 T01391002  RH  038%=      5-min Rain = 0
KAM3 240156Z 16007KT 14/M00 A2992 RMK A01 T01381001  RH  038%=      5-min Rain = 0
KAM3 240157Z 16007KT 14/M00 A2992 RMK A01 T01381001  RH  039%=      5-min Rain = 0
KAM3 240158Z 16006KT 14/00 A2992 RMK A01 T01370000  RH  039%=      5-min Rain = 0
KAM3 240159Z 16007KT 14/00 A2992 RMK A01 T01360001  RH  039%=      5-min Rain = 0
KAM3 240200Z 16006KT 14/00 A2992 RMK A01 T01360002  RH  040%=      5-min Rain = 0
KAM3 240201Z 16006KT 13/00 A2992 RMK A01 T01340002  RH  040%=      5-min Rain = 0
KAM3 240202Z 16006KT 13/00 A2992 RMK A01 T01330002  RH  041%=      5-min Rain = 0
KAM3 240203Z 16006KT 13/00 A2992 RMK A01 T01340003  RH  041%=      5-min Rain = 0
KAM3 240204Z 16006KT 13/00 A2992 RMK A01 T01320003  RH  041%=      5-min Rain = 0
KAM3 240205Z 15006KT 13/00 A2992 RMK A01 T01280003  RH  042%=      5-min Rain = 0
KAM3 240206Z 15005KT 13/00 A2992 RMK A01 T01260003  RH  043%=      5-min Rain = 0
KAM3 240207Z 15005KT 13/00 A2992 RMK A01 T01250004  RH  043%=      5-min Rain = 0
KAM3 240208Z 14005KT 12/00 A2992 RMK A01 T01240004  RH  044%=      5-min Rain = 0
KAM3 240209Z 14005KT 12/00 A2992 RMK A01 T01230004  RH  044%=      5-min Rain = 0
KAM3 240210Z 15005KT 13/01 A2992 RMK A01 T01250005  RH  044%=      5-min Rain = 0
KAM3 240211Z 15005KT 13/01 A2992 RMK A01 T01250005  RH  044%=      5-min Rain = 0
KAM3 240212Z 15005KT 13/01 A2993 RMK A01 T01250005  RH  044%=      5-min Rain = 0
KAM3 240213Z 15005KT 13/01 A2993 RMK A01 T01250005  RH  044%=      5-min Rain = 0
KAM3 240214Z 15005KT 13/01 A2993 RMK A01 T01250005  RH  044%=      5-min Rain = 0
KAM3 240215Z 16006KT 13/00 A2993 RMK A01 T01260004  RH  043%=      5-min Rain = 0
KAM3 240216Z 16006KT 13/01 A2993 RMK A01 T01280005  RH  043%=      5-min Rain = 0
KAM3 240217Z 16006KT 13/00 A2993 RMK A01 T01280004  RH  043%=      5-min Rain = 0
KAM3 240218Z 16006KT 13/00 A2993 RMK A01 T01280003  RH  042%=      5-min Rain = 0
KAM3 240219Z 16006KT 13/00 A2993 RMK A01 T01280004  RH  042%=      5-min Rain = 0
KAM3 240220Z 16007KT 13/00 A2993 RMK A01 T01290004  RH  042%=      5-min Rain = 0
KAM3 240221Z 16007KT 13/00 A2993 RMK A01 T01290004  RH  042%=      5-min Rain = 0
KAM3 240222Z 16006KT 13/00 A2993 RMK A01 T01280004  RH  042%=      5-min Rain = 0
KAM3 240223Z 16007KT 13/00 A2993 RMK A01 T01270004  RH  043%=      5-min Rain = 0
KAM3 240224Z 16006KT 13/00 A2993 RMK A01 T01260004  RH  043%=      5-min Rain = 0
KAM3 240225Z 15006KT 13/00 A2993 RMK A01 T01250004  RH  044%=      5-min Rain = 0
KAM3 240226Z 15006KT 12/01 A2993 RMK A01 T01240005  RH  044%=      5-min Rain = 0
KAM3 240227Z 15006KT 12/00 A2993 RMK A01 T01220004  RH  044%=      5-min Rain = 0
KAM3 240228Z 15006KT 12/00 A2993 RMK A01 T01220004  RH  045%=      5-min Rain = 0
KAM3 240229Z 14006KT 12/00 A2993 RMK A01 T01210004  RH  045%=      5-min Rain = 0
KAM3 240230Z 15005KT 12/00 A2993 RMK A01 T01220004  RH  044%=      5-min Rain = 0
KAM3 240231Z 15005KT 12/00 A2993 RMK A01 T01240004  RH  044%=      5-min Rain = 0
KAM3 240232Z 14005KT 13/01 A2993 RMK A01 T01250005  RH  044%=      5-min Rain = 0
KAM3 240233Z 14006KT 13/01 A2993 RMK A01 T01250005  RH  044%=      5-min Rain = 0
KAM3 240234Z 15006KT 12/00 A2993 RMK A01 T01240004  RH  044%=      5-min Rain = 0
KAM3 240235Z 14006KT 13/00 A2993 RMK A01 T01250003  RH  043%=      5-min Rain = 0
KAM3 240236Z 14006KT 13/00 A2993 RMK A01 T01270004  RH  043%=      5-min Rain = 0
KAM3 240237Z 14006KT 13/00 A2994 RMK A01 T01270004  RH  043%=      5-min Rain = 0
KAM3 240238Z 14007KT 13/00 A2994 RMK A01 T01270003  RH  043%=      5-min Rain = 0
KAM3 240239Z 14007KT 13/00 A2994 RMK A01 T01270003  RH  043%=      5-min Rain = 0
KAM3 240240Z 14008KT 13/00 A2994 RMK A01 T01270004  RH  043%=      5-min Rain = 0
KAM3 240241Z 14008KT 13/01 A2994 RMK A01 T01260005  RH  043%=      5-min Rain = 0
KAM3 240242Z 14008KT 13/01 A2994 RMK A01 T01250005  RH  044%=      5-min Rain = 0
KAM3 240243Z 14007KT 12/01 A2994 RMK A01 T01230006  RH  045%=      5-min Rain = 0
KAM3 240244Z 14007KT 12/01 A2994 RMK A01 T01190006  RH  046%=      5-min Rain = 0
KAM3 240245Z 14008KT 12/01 A2994 RMK A01 T01170008  RH  047%=      5-min Rain = 0
KAM3 240246Z 14007KT 12/01 A2994 RMK A01 T01160008  RH  048%=      5-min Rain = 0
KAM3 240247Z 14007KT 11/01 A2994 RMK A01 T01140009  RH  048%=      5-min Rain = 0
KAM3 240248Z 14007KT 11/01 A2994 RMK A01 T01130009  RH  049%=      5-min Rain = 0
KAM3 240249Z 15007KT 11/01 A2994 RMK A01 T01120009  RH  049%=      5-min Rain = 0
KAM3 240250Z 15007KT 11/01 A2994 RMK A01 T01120009  RH  049%=      5-min Rain = 0
KAM3 240251Z 15007KT 11/01 A2994 RMK A01 T01120009  RH  049%=      5-min Rain = 0
KAM3 240252Z 15007KT 11/01 A2994 RMK A01 T01110009  RH  050%=      5-min Rain = 0
KAM3 240253Z 15007KT 11/01 A2994 RMK A01 T01110010  RH  050%=      5-min Rain = 0
KAM3 240254Z 15008KT 11/01 A2994 RMK A01 T01120010  RH  049%=      5-min Rain = 0
KAM3 240255Z 16008KT 11/01 A2994 RMK A01 T01130009  RH  049%=      5-min Rain = 0
KAM3 240256Z 16008KT 11/01 A2994 RMK A01 T01140008  RH  048%=      5-min Rain = 0
KAM3 240257Z 16008KT 12/01 A2994 RMK A01 T01160008  RH  047%=      5-min Rain = 0
KAM3 240258Z 16008KT 12/01 A2994 RMK A01 T01170008  RH  047%=      5-min Rain = 0
KAM3 240259Z 16008KT 12/01 A2994 RMK A01 T01170008  RH  047%=      5-min Rain = 0
KAM3 240300Z 16008KT 12/01 A2994 RMK A01 T01170007  RH  047%=      5-min Rain = 0
KAM3 240301Z 16008KT 12/01 A2994 RMK A01 T01170007  RH  047%=      5-min Rain = 0
KAM3 240302Z 15008KT 12/01 A2994 RMK A01 T01160007  RH  047%=      5-min Rain = 0
KAM3 240303Z 15007KT 11/01 A2994 RMK A01 T01140007  RH  048%=      5-min Rain = 0
KAM3 240304Z 15007KT 11/01 A2994 RMK A01 T01110007  RH  049%=      5-min Rain = 0
KAM3 240305Z 14006KT 11/01 A2994 RMK A01 T01090007  RH  049%=      5-min Rain = 0
KAM3 240306Z 09008KT 11/01 A2995 RMK A01 T01070009  RH  051%=      5-min Rain = 0
KAM3 240307Z 08008KT 10/02 A2995 RMK A01 T01040015  RH  054%=      5-min Rain = 0
KAM3 240308Z 11008KT 10/02 A2995 RMK A01 T01020016  RH  055%=      5-min Rain = 0
KAM3 240309Z 11009KT 10/02 A2995 RMK A01 T01040015  RH  054%=      5-min Rain = 0
KAM3 240310Z 11009KT 10/02 A2995 RMK A01 T01030017  RH  055%=      5-min Rain = 0
KAM3 240311Z 12008KT 10/02 A2995 RMK A01 T01000016  RH  056%=      5-min Rain = 0
KAM3 240312Z 14008KT 10/02 A2995 RMK A01 T01000015  RH  055%=      5-min Rain = 0
KAM3 240313Z 14009KT 10/01 A2995 RMK A01 T01030013  RH  054%=      5-min Rain = 0
KAM3 240314Z 14009KT 11/01 A2995 RMK A01 T01070013  RH  052%=      5-min Rain = 0
KAM3 240315Z 14008KT 11/01 A2995 RMK A01 T01090012  RH  051%=      5-min Rain = 0
KAM3 240316Z 14007KT 11/01 A2995 RMK A01 T01100012  RH  051%=      5-min Rain = 0
KAM3 240317Z 13008KT 11/01 A2995 RMK A01 T01100011  RH  051%=      5-min Rain = 0
KAM3 240318Z 13007KT 11/01 A2995 RMK A01 T01090012  RH  051%=      5-min Rain = 0
KAM3 240319Z 14007KT 11/01 A2995 RMK A01 T01080012  RH  051%=      5-min Rain = 0
KAM3 240320Z 14007KT 11/01 A2995 RMK A01 T01070012  RH  052%=      5-min Rain = 0
KAM3 240321Z 14007KT 11/01 A2995 RMK A01 T01060012  RH  052%=      5-min Rain = 0
KAM3 240322Z 14007KT 11/01 A2995 RMK A01 T01050011  RH  052%=      5-min Rain = 0
KAM3 240323Z 14007KT 10/01 A2995 RMK A01 T01040011  RH  052%=      5-min Rain = 0
KAM3 240324Z 14007KT 10/01 A2995 RMK A01 T01030011  RH  053%=      5-min Rain = 0
KAM3 240325Z 14007KT 10/01 A2995 RMK A01 T01030011  RH  053%=      5-min Rain = 0
KAM3 240326Z 14007KT 10/01 A2995 RMK A01 T01030011  RH  053%=      5-min Rain = 0
KAM3 240327Z 14007KT 10/01 A2995 RMK A01 T01040011  RH  052%=      5-min Rain = 0
KAM3 240328Z 14007KT 11/01 A2995 RMK A01 T01050011  RH  052%=      5-min Rain = 0
KAM3 240329Z 14007KT 11/01 A2995 RMK A01 T01050011  RH  052%=      5-min Rain = 0
KAM3 240330Z 14008KT 11/01 A2995 RMK A01 T01050011  RH  052%=      5-min Rain = 0
KAM3 240331Z 14008KT 11/01 A2995 RMK A01 T01060011  RH  052%=      5-min Rain = 0
KAM3 240332Z 14009KT 11/01 A2995 RMK A01 T01060011  RH  052%=      5-min Rain = 0
KAM3 240333Z 14009KT 11/01 A2995 RMK A01 T01070012  RH  052%=      5-min Rain = 0
KAM3 240334Z 14008KT 11/01 A2995 RMK A01 T01060013  RH  052%=      5-min Rain = 0
KAM3 240335Z 14008KT 11/01 A2995 RMK A01 T01060013  RH  053%=      5-min Rain = 0
KAM3 240336Z 14008KT 11/01 A2995 RMK A01 T01050013  RH  053%=      5-min Rain = 0
KAM3 240337Z 14008KT 11/01 A2995 RMK A01 T01050013  RH  053%=      5-min Rain = 0
KAM3 240338Z 13008KT 11/01 A2995 RMK A01 T01060014  RH  053%=      5-min Rain = 0
KAM3 240339Z 14008KT 11/02 A2995 RMK A01 T01060015  RH  053%=      5-min Rain = 0
KAM3 240340Z 14008KT 11/02 A2995 RMK A01 T01060015  RH  054%=      5-min Rain = 0
KAM3 240341Z 14009KT 11/02 A2995 RMK A01 T01050015  RH  054%=      5-min Rain = 0
KAM3 240342Z 14009KT 10/02 A2995 RMK A01 T01040016  RH  054%=      5-min Rain = 0
KAM3 240343Z 13009KT 11/02 A2995 RMK A01 T01050017  RH  055%=      5-min Rain = 0
KAM3 240344Z 14008KT 11/02 A2995 RMK A01 T01060019  RH  055%=      5-min Rain = 0
KAM3 240345Z 14007KT 11/02 A2995 RMK A01 T01070021  RH  055%=      5-min Rain = 0
KAM3 240346Z 14008KT 11/02 A2995 RMK A01 T01070021  RH  055%=      5-min Rain = 0
KAM3 240347Z 14008KT 11/02 A2995 RMK A01 T01070022  RH  056%=      5-min Rain = 0
KAM3 240348Z 15009KT 11/02 A2995 RMK A01 T01050021  RH  056%=      5-min Rain = 0
KAM3 240349Z 15009KT 11/02 A2995 RMK A01 T01050022  RH  056%=      5-min Rain = 0
KAM3 240350Z 15008KT 11/02 A2995 RMK A01 T01050021  RH  056%=      5-min Rain = 0
KAM3 240351Z 15009KT 10/02 A2995 RMK A01 T01040021  RH  056%=      5-min Rain = 0
KAM3 240352Z 15009KT 10/02 A2996 RMK A01 T01040021  RH  056%=      5-min Rain = 0
KAM3 240353Z 16010KT 11/02 A2996 RMK A01 T01050020  RH  056%=      5-min Rain = 0
KAM3 240354Z 16010KT 11/02 A2996 RMK A01 T01050019  RH  055%=      5-min Rain = 0
KAM3 240355Z 16011KT 11/02 A2996 RMK A01 T01060019  RH  055%=      5-min Rain = 0
KAM3 240356Z 16011KT 11/02 A2996 RMK A01 T01090018  RH  053%=      5-min Rain = 0
KAM3 240357Z 16010KT 11/02 A2996 RMK A01 T01110018  RH  053%=      5-min Rain = 0
KAM3 240358Z 16011KT 11/02 A2996 RMK A01 T01110018  RH  053%=      5-min Rain = 0
KAM3 240359Z 16010KT 11/02 A2996 RMK A01 T01110018  RH  053%=      5-min Rain = 0
KAM3 240400Z 15011KT 11/02 A2996 RMK A01 T01110017  RH  052%=      5-min Rain = 0
KAM3 240401Z 15012KT 11/02 A2996 RMK A01 T01120017  RH  052%=      5-min Rain = 0
KAM3 240402Z 15012KT 11/02 A2996 RMK A01 T01140017  RH  052%=      5-min Rain = 0
KAM3 240403Z 15012KT 12/02 A2996 RMK A01 T01150018  RH  051%=      5-min Rain = 0
KAM3 240404Z 15012KT 12/02 A2996 RMK A01 T01160018  RH  051%=      5-min Rain = 0
KAM3 240405Z 15011KT 12/02 A2996 RMK A01 T01160018  RH  051%=      5-min Rain = 0
KAM3 240406Z 16011KT 12/02 A2996 RMK A01 T01160018  RH  051%=      5-min Rain = 0
KAM3 240407Z 16011KT 12/02 A2996 RMK A01 T01160018  RH  051%=      5-min Rain = 0
KAM3 240408Z 16011KT 12/02 A2996 RMK A01 T01150017  RH  051%=      5-min Rain = 0
KAM3 240409Z 15010KT 12/02 A2996 RMK A01 T01150018  RH  051%=      5-min Rain = 0
KAM3 240410Z 15010KT 12/02 A2996 RMK A01 T01150018  RH  051%=      5-min Rain = 0
KAM3 240411Z 16011KT 12/02 A2996 RMK A01 T01150018  RH  051%=      5-min Rain = 0
KAM3 240412Z 16011KT 12/02 A2996 RMK A01 T01160019  RH  051%=      5-min Rain = 0
KAM3 240413Z 16010KT 12/02 A2996 RMK A01 T01160019  RH  051%=      5-min Rain = 0
KAM3 240414Z 16010KT 12/02 A2996 RMK A01 T01160019  RH  052%=      5-min Rain = 0
KAM3 240415Z 16011KT 12/02 A2996 RMK A01 T01160020  RH  052%=      5-min Rain = 0
KAM3 240416Z 16010KT 12/02 A2996 RMK A01 T01150019  RH  052%=      5-min Rain = 0
KAM3 240417Z 16010KT 11/02 A2996 RMK A01 T01140020  RH  052%=      5-min Rain = 0
KAM3 240418Z 16010KT 11/02 A2996 RMK A01 T01140020  RH  052%=      5-min Rain = 0
KAM3 240419Z 16011KT 11/02 A2996 RMK A01 T01130020  RH  053%=      5-min Rain = 0
KAM3 240420Z 15011KT 11/02 A2996 RMK A01 T01130020  RH  053%=      5-min Rain = 0
KAM3 240421Z 15010KT 11/02 A2996 RMK A01 T01130020  RH  053%=      5-min Rain = 0
KAM3 240422Z 16010KT 11/02 A2996 RMK A01 T01140020  RH  053%=      5-min Rain = 0
KAM3 240423Z 16011KT 11/02 A2996 RMK A01 T01130020  RH  053%=      5-min Rain = 0
KAM3 240424Z 16010KT 11/02 A2996 RMK A01 T01130020  RH  053%=      5-min Rain = 0
KAM3 240425Z 16010KT 11/02 A2996 RMK A01 T01120021  RH  053%=      5-min Rain = 0
KAM3 240426Z 16011KT 11/02 A2996 RMK A01 T01110021  RH  054%=      5-min Rain = 0
KAM3 240427Z 16010KT 11/02 A2996 RMK A01 T01110021  RH  054%=      5-min Rain = 0
KAM3 240428Z 16010KT 11/02 A2996 RMK A01 T01100021  RH  054%=      5-min Rain = 0
KAM3 240429Z 16010KT 11/02 A2996 RMK A01 T01090021  RH  055%=      5-min Rain = 0
KAM3 240430Z 17010KT 11/02 A2996 RMK A01 T01090021  RH  055%=      5-min Rain = 0
KAM3 240431Z 17010KT 11/02 A2996 RMK A01 T01080021  RH  055%=      5-min Rain = 0
KAM3 240432Z 17010KT 11/02 A2996 RMK A01 T01080021  RH  055%=      5-min Rain = 0
KAM3 240433Z 17011KT 11/02 A2996 RMK A01 T01070022  RH  056%=      5-min Rain = 0
KAM3 240434Z 17011KT 11/02 A2996 RMK A01 T01060022  RH  056%=      5-min Rain = 0
KAM3 240435Z 17012KT 11/02 A2996 RMK A01 T01060022  RH  056%=      5-min Rain = 0
KAM3 240436Z 17012KT 11/02 A2996 RMK A01 T01060022  RH  056%=      5-min Rain = 0
KAM3 240437Z 17012KT 11/02 A2996 RMK A01 T01070023  RH  056%=      5-min Rain = 0
KAM3 240438Z 17012KT 11/02 A2996 RMK A01 T01070023  RH  056%=      5-min Rain = 0
KAM3 240439Z 16013KT 11/02 A2996 RMK A01 T01090023  RH  055%=      5-min Rain = 0
KAM3 240440Z 16012KT 11/02 A2996 RMK A01 T01100023  RH  055%=      5-min Rain = 0
KAM3 240441Z 16012KT 11/02 A2996 RMK A01 T01120023  RH  054%=      5-min Rain = 0
KAM3 240442Z 16012KT 11/02 A2996 RMK A01 T01130023  RH  054%=      5-min Rain = 0
KAM3 240443Z 16012KT 11/02 A2996 RMK A01 T01140023  RH  054%=      5-min Rain = 0
KAM3 240444Z 17012KT 11/02 A2996 RMK A01 T01130023  RH  054%=      5-min Rain = 0
KAM3 240445Z 17012KT 11/02 A2996 RMK A01 T01140023  RH  054%=      5-min Rain = 0
KAM3 240446Z 16012KT 11/02 A2996 RMK A01 T01130023  RH  054%=      5-min Rain = 0
KAM3 240447Z 16011KT 11/02 A2995 RMK A01 T01140024  RH  054%=      5-min Rain = 0
KAM3 240448Z 16011KT 11/02 A2995 RMK A01 T01140023  RH  054%=      5-min Rain = 0
KAM3 240449Z 16011KT 11/02 A2995 RMK A01 T01140023  RH  053%=      5-min Rain = 0
KAM3 240450Z 16011KT 11/02 A2995 RMK A01 T01140024  RH  054%=      5-min Rain = 0
KAM3 240451Z 17011KT 11/02 A2996 RMK A01 T01140024  RH  054%=      5-min Rain = 0
KAM3 240452Z 17012KT 11/02 A2996 RMK A01 T01130023  RH  054%=      5-min Rain = 0
KAM3 240453Z 16012KT 11/02 A2996 RMK A01 T01130023  RH  054%=      5-min Rain = 0
KAM3 240454Z 17011KT 11/02 A2996 RMK A01 T01130024  RH  054%=      5-min Rain = 0
KAM3 240455Z 17011KT 11/02 A2996 RMK A01 T01130024  RH  054%=      5-min Rain = 0
KAM3 240456Z 17011KT 11/02 A2996 RMK A01 T01130023  RH  054%=      5-min Rain = 0
KAM3 240457Z 17011KT 11/02 A2996 RMK A01 T01120023  RH  054%=      5-min Rain = 0
KAM3 240458Z 17012KT 11/02 A2996 RMK A01 T01110023  RH  055%=      5-min Rain = 0
KAM3 240459Z 16012KT 11/02 A2996 RMK A01 T01110023  RH  055%=      5-min Rain = 0

Page generated in 0.0701 seconds.